Observation data for Sierra Blanca on 06/15/2019      Previous  Date  Next       Current Mesonet Observations  Soil Data  Daily Summary Page  Observations in Plain Language
KSB1 150500Z 29006KT 29/01 A2999 RMK A01 T02910005  RH  016%=      5-min Rain = 0
KSB1 150501Z 29006KT 29/01 A2999 RMK A01 T02920005  RH  016%=      5-min Rain = 0
KSB1 150502Z 29006KT 29/01 A2999 RMK A01 T02920005  RH  016%=      5-min Rain = 0
KSB1 150503Z 30006KT 29/01 A2999 RMK A01 T02910006  RH  016%=      5-min Rain = 0
KSB1 150504Z 29008KT 29/01 A2999 RMK A01 T02900006  RH  016%=      5-min Rain = 0
KSB1 150505Z 30006KT 29/01 A2999 RMK A01 T02910006  RH  016%=      5-min Rain = 0
KSB1 150506Z 29007KT 29/01 A2999 RMK A01 T02920006  RH  016%=      5-min Rain = 0
KSB1 150507Z 29007KT 29/01 A2999 RMK A01 T02920007  RH  016%=      5-min Rain = 0
KSB1 150508Z 30007KT 29/01 A2999 RMK A01 T02920007  RH  016%=      5-min Rain = 0
KSB1 150509Z 30006KT 29/01 A2999 RMK A01 T02900008  RH  016%=      5-min Rain = 0
KSB1 150510Z 29005KT 29/01 A2999 RMK A01 T02880008  RH  016%=      5-min Rain = 0
KSB1 150511Z 29006KT 29/01 A2999 RMK A01 T02880008  RH  016%=      5-min Rain = 0
KSB1 150512Z 30006KT 29/01 A2999 RMK A01 T02870009  RH  017%=      5-min Rain = 0
KSB1 150513Z 29006KT 29/01 A2999 RMK A01 T02860010  RH  017%=      5-min Rain = 0
KSB1 150514Z 29005KT 29/01 A2999 RMK A01 T02860010  RH  017%=      5-min Rain = 0
KSB1 150515Z 30006KT 29/01 A2999 RMK A01 T02850010  RH  017%=      5-min Rain = 0
KSB1 150516Z 30005KT 29/01 A2999 RMK A01 T02850011  RH  017%=      5-min Rain = 0
KSB1 150517Z 29005KT 28/01 A2999 RMK A01 T02840011  RH  017%=      5-min Rain = 0
KSB1 150518Z 29006KT 28/01 A2999 RMK A01 T02840011  RH  017%=      5-min Rain = 0
KSB1 150519Z 31005KT 28/01 A2999 RMK A01 T02840012  RH  017%=      5-min Rain = 0
KSB1 150520Z 28005KT 28/01 A2999 RMK A01 T02830013  RH  017%=      5-min Rain = 0
KSB1 150521Z 29006KT 28/01 A2999 RMK A01 T02830013  RH  017%=      5-min Rain = 0
KSB1 150522Z 29006KT 28/01 A2999 RMK A01 T02830013  RH  017%=      5-min Rain = 0
KSB1 150523Z 29006KT 28/01 A2999 RMK A01 T02840013  RH  017%=      5-min Rain = 0
KSB1 150524Z 29006KT 28/01 A2999 RMK A01 T02840013  RH  017%=      5-min Rain = 0
KSB1 150525Z 29006KT 28/01 A2999 RMK A01 T02840013  RH  017%=      5-min Rain = 0
KSB1 150526Z 29005KT 28/01 A2999 RMK A01 T02840014  RH  017%=      5-min Rain = 0
KSB1 150527Z 30005KT 28/02 A2999 RMK A01 T02840015  RH  018%=      5-min Rain = 0
KSB1 150528Z 30007KT 28/02 A2999 RMK A01 T02830015  RH  018%=      5-min Rain = 0
KSB1 150529Z 30006KT 29/02 A2999 RMK A01 T02850016  RH  018%=      5-min Rain = 0
KSB1 150530Z 30005KT 29/02 A2999 RMK A01 T02880016  RH  017%=      5-min Rain = 0
KSB1 150531Z 30005KT 29/02 A2999 RMK A01 T02900016  RH  017%=      5-min Rain = 0
KSB1 150532Z 30005KT 29/02 A30 RMK A01 T02890016  RH  017%=      5-min Rain = 0
KSB1 150533Z 30005KT 29/02 A30 RMK A01 T02880017  RH  017%=      5-min Rain = 0
KSB1 150534Z 30005KT 29/02 A30 RMK A01 T02880017  RH  017%=      5-min Rain = 0
KSB1 150535Z 29004KT 29/02 A30 RMK A01 T02880017  RH  017%=      5-min Rain = 0
KSB1 150536Z 30005KT 29/02 A30 RMK A01 T02870018  RH  018%=      5-min Rain = 0
KSB1 150537Z 29006KT 29/02 A30 RMK A01 T02860018  RH  018%=      5-min Rain = 0
KSB1 150538Z 29005KT 29/02 A30 RMK A01 T02860017  RH  018%=      5-min Rain = 0
KSB1 150539Z 29006KT 29/02 A30 RMK A01 T02860017  RH  018%=      5-min Rain = 0
KSB1 150540Z 30006KT 29/02 A30 RMK A01 T02860018  RH  018%=      5-min Rain = 0
KSB1 150541Z 30005KT 29/02 A30 RMK A01 T02860018  RH  018%=      5-min Rain = 0
KSB1 150542Z 33007KT 29/02 A30 RMK A01 T02860018  RH  018%=      5-min Rain = 0
KSB1 150543Z 33005KT 29/02 A30 RMK A01 T02860017  RH  018%=      5-min Rain = 0
KSB1 150544Z 31006KT 29/02 A30 RMK A01 T02860017  RH  018%=      5-min Rain = 0
KSB1 150545Z 33006KT 29/02 A30 RMK A01 T02850016  RH  018%=      5-min Rain = 0
KSB1 150546Z 32006KT 29/02 A30 RMK A01 T02850015  RH  017%=      5-min Rain = 0
KSB1 150547Z 32006KT 29/02 A30 RMK A01 T02850015  RH  017%=      5-min Rain = 0
KSB1 150548Z 32006KT 29/02 A30 RMK A01 T02850015  RH  018%=      5-min Rain = 0
KSB1 150549Z 32006KT 28/02 A30 RMK A01 T02840015  RH  018%=      5-min Rain = 0
KSB1 150550Z 30007KT 29/02 A30 RMK A01 T02850016  RH  018%=      5-min Rain = 0
KSB1 150551Z 32005KT 29/02 A30 RMK A01 T02870016  RH  017%=      5-min Rain = 0
KSB1 150552Z 30005KT 29/02 A30 RMK A01 T02880017  RH  017%=      5-min Rain = 0
KSB1 150553Z 32006KT 29/02 A30 RMK A01 T02880016  RH  017%=      5-min Rain = 0
KSB1 150554Z 31006KT 29/02 A30 RMK A01 T02880017  RH  017%=      5-min Rain = 0
KSB1 150555Z 30005KT 29/02 A3001 RMK A01 T02870018  RH  018%=      5-min Rain = 0
KSB1 150556Z 31004KT 29/02 A30 RMK A01 T02870018  RH  018%=      5-min Rain = 0
KSB1 150557Z 28006KT 29/02 A3001 RMK A01 T02870018  RH  018%=      5-min Rain = 0
KSB1 150558Z 31004KT 29/02 A3001 RMK A01 T02870019  RH  018%=      5-min Rain = 0
KSB1 150559Z 33003KT 29/02 A3001 RMK A01 T02870018  RH  018%=      5-min Rain = 0
KSB1 150600Z 28003KT 29/02 A3001 RMK A01 T02860017  RH  018%=      5-min Rain = 0
KSB1 150601Z 30003KT 29/02 A3001 RMK A01 T02860018  RH  018%=      5-min Rain = 0
KSB1 150602Z 30004KT 29/02 A3001 RMK A01 T02860018  RH  018%=      5-min Rain = 0
KSB1 150603Z 30004KT 29/02 A3001 RMK A01 T02860020  RH  018%=      5-min Rain = 0
KSB1 150604Z 29005KT 29/02 A3001 RMK A01 T02860020  RH  018%=      5-min Rain = 0
KSB1 150605Z 29003KT 29/02 A3001 RMK A01 T02850021  RH  018%=      5-min Rain = 0
KSB1 150606Z 30004KT 28/02 A3001 RMK A01 T02840022  RH  018%=      5-min Rain = 0
KSB1 150607Z 31004KT 28/02 A3001 RMK A01 T02830021  RH  019%=      5-min Rain = 0
KSB1 150608Z 30006KT 28/02 A3001 RMK A01 T02820021  RH  019%=      5-min Rain = 0
KSB1 150609Z 29005KT 28/02 A3001 RMK A01 T02830022  RH  019%=      5-min Rain = 0
KSB1 150610Z 27005KT 28/02 A3001 RMK A01 T02840022  RH  019%=      5-min Rain = 0
KSB1 150611Z 28005KT 28/02 A3001 RMK A01 T02840023  RH  019%=      5-min Rain = 0
KSB1 150612Z 29007KT 28/02 A3001 RMK A01 T02820022  RH  019%=      5-min Rain = 0
KSB1 150613Z 29005KT 28/02 A3001 RMK A01 T02820023  RH  019%=      5-min Rain = 0
KSB1 150614Z 29004KT 28/02 A3001 RMK A01 T02820024  RH  019%=      5-min Rain = 0
KSB1 150615Z 30004KT 28/02 A3001 RMK A01 T02800024  RH  019%=      5-min Rain = 0
KSB1 150616Z 29004KT 28/02 A3001 RMK A01 T02800024  RH  019%=      5-min Rain = 0
KSB1 150617Z 30005KT 28/03 A3001 RMK A01 T02790025  RH  019%=      5-min Rain = 0
KSB1 150618Z 30005KT 28/02 A3001 RMK A01 T02790024  RH  019%=      5-min Rain = 0
KSB1 150619Z 30004KT 28/02 A3001 RMK A01 T02790024  RH  019%=      5-min Rain = 0
KSB1 150620Z 29005KT 28/02 A3001 RMK A01 T02800024  RH  019%=      5-min Rain = 0
KSB1 150621Z 30004KT 28/03 A3001 RMK A01 T02800025  RH  019%=      5-min Rain = 0
KSB1 150622Z 29005KT 28/03 A3001 RMK A01 T02790025  RH  019%=      5-min Rain = 0
KSB1 150623Z 29005KT 28/03 A3001 RMK A01 T02790026  RH  020%=      5-min Rain = 0
KSB1 150624Z 30005KT 28/03 A3001 RMK A01 T02790025  RH  019%=      5-min Rain = 0
KSB1 150625Z 30006KT 28/03 A3001 RMK A01 T02800025  RH  019%=      5-min Rain = 0
KSB1 150626Z 30005KT 28/03 A3001 RMK A01 T02810026  RH  019%=      5-min Rain = 0
KSB1 150627Z 30006KT 28/03 A3001 RMK A01 T02810026  RH  019%=      5-min Rain = 0
KSB1 150628Z 31005KT 28/03 A3001 RMK A01 T02810027  RH  019%=      5-min Rain = 0
KSB1 150629Z 31006KT 28/03 A3001 RMK A01 T02800027  RH  020%=      5-min Rain = 0
KSB1 150630Z 31005KT 28/03 A3001 RMK A01 T02800027  RH  020%=      5-min Rain = 0
KSB1 150631Z 31005KT 28/03 A3001 RMK A01 T02800026  RH  019%=      5-min Rain = 0
KSB1 150632Z 32006KT 28/03 A3001 RMK A01 T02810026  RH  019%=      5-min Rain = 0
KSB1 150633Z 31006KT 28/03 A3001 RMK A01 T02820027  RH  019%=      5-min Rain = 0
KSB1 150634Z 32006KT 28/03 A3001 RMK A01 T02810026  RH  019%=      5-min Rain = 0
KSB1 150635Z 31007KT 28/03 A3001 RMK A01 T02810025  RH  019%=      5-min Rain = 0
KSB1 150636Z 30007KT 28/03 A3001 RMK A01 T02800026  RH  019%=      5-min Rain = 0
KSB1 150637Z 30005KT 28/03 A3001 RMK A01 T02810026  RH  019%=      5-min Rain = 0
KSB1 150638Z 31005KT 28/03 A3001 RMK A01 T02810027  RH  019%=      5-min Rain = 0
KSB1 150639Z 30004KT 28/03 A3001 RMK A01 T02800027  RH  020%=      5-min Rain = 0
KSB1 150640Z 28004KT 28/03 A3001 RMK A01 T02800027  RH  020%=      5-min Rain = 0
KSB1 150641Z 30004KT 28/03 A3001 RMK A01 T02800027  RH  020%=      5-min Rain = 0
KSB1 150642Z 30004KT 28/03 A3001 RMK A01 T02800027  RH  020%=      5-min Rain = 0
KSB1 150643Z 32004KT 28/03 A3001 RMK A01 T02790027  RH  020%=      5-min Rain = 0
KSB1 150644Z 31003KT 28/03 A3001 RMK A01 T02780027  RH  020%=      5-min Rain = 0
KSB1 150645Z 30004KT 28/03 A3001 RMK A01 T02760027  RH  020%=      5-min Rain = 0
KSB1 150646Z 30004KT 28/03 A3001 RMK A01 T02750027  RH  020%=      5-min Rain = 0
KSB1 150647Z 31004KT 28/03 A3001 RMK A01 T02750026  RH  020%=      5-min Rain = 0
KSB1 150648Z 32004KT 28/03 A3001 RMK A01 T02750026  RH  020%=      5-min Rain = 0
KSB1 150649Z 32005KT 28/03 A3001 RMK A01 T02760027  RH  020%=      5-min Rain = 0
KSB1 150650Z 32006KT 28/03 A3001 RMK A01 T02760026  RH  020%=      5-min Rain = 0
KSB1 150651Z 32005KT 28/03 A3001 RMK A01 T02760025  RH  020%=      5-min Rain = 0
KSB1 150652Z 32005KT 28/03 A3001 RMK A01 T02760025  RH  020%=      5-min Rain = 0
KSB1 150653Z 32005KT 28/03 A3001 RMK A01 T02750025  RH  020%=      5-min Rain = 0
KSB1 150654Z 32006KT 27/02 A3001 RMK A01 T02740024  RH  020%=      5-min Rain = 0
KSB1 150655Z 32005KT 27/02 A3001 RMK A01 T02740023  RH  020%=      5-min Rain = 0
KSB1 150656Z 32006KT 27/02 A3001 RMK A01 T02730023  RH  020%=      5-min Rain = 0
KSB1 150657Z 31006KT 27/02 A3001 RMK A01 T02720023  RH  020%=      5-min Rain = 0
KSB1 150658Z 31006KT 27/02 A3001 RMK A01 T02720023  RH  020%=      5-min Rain = 0
KSB1 150659Z 32006KT 27/02 A3001 RMK A01 T02720024  RH  020%=      5-min Rain = 0
KSB1 150700Z 31006KT 27/02 A3001 RMK A01 T02720023  RH  020%=      5-min Rain = 0
KSB1 150701Z 31006KT 27/02 A3001 RMK A01 T02720023  RH  020%=      5-min Rain = 0
KSB1 150702Z 31006KT 27/02 A3001 RMK A01 T02720021  RH  020%=      5-min Rain = 0
KSB1 150703Z 31006KT 27/02 A3001 RMK A01 T02720021  RH  020%=      5-min Rain = 0
KSB1 150704Z 31006KT 27/02 A3001 RMK A01 T02720021  RH  020%=      5-min Rain = 0
KSB1 150705Z 31006KT 27/02 A3001 RMK A01 T02730022  RH  020%=      5-min Rain = 0
KSB1 150706Z 31005KT 27/02 A3001 RMK A01 T02740022  RH  020%=      5-min Rain = 0
KSB1 150707Z 30005KT 28/02 A3001 RMK A01 T02750022  RH  019%=      5-min Rain = 0
KSB1 150708Z 30006KT 28/02 A3001 RMK A01 T02750022  RH  020%=      5-min Rain = 0
KSB1 150709Z 32005KT 27/02 A3001 RMK A01 T02740024  RH  020%=      5-min Rain = 0
KSB1 150710Z 31005KT 27/02 A3001 RMK A01 T02730024  RH  020%=      5-min Rain = 0
KSB1 150711Z 31006KT 27/03 A3001 RMK A01 T02730025  RH  020%=      5-min Rain = 0
KSB1 150712Z 30006KT 27/02 A3001 RMK A01 T02720023  RH  020%=      5-min Rain = 0
KSB1 150713Z 30004KT 27/02 A3001 RMK A01 T02730024  RH  020%=      5-min Rain = 0
KSB1 150714Z 30007KT 27/02 A3001 RMK A01 T02740024  RH  020%=      5-min Rain = 0
KSB1 150715Z 30006KT 27/02 A3001 RMK A01 T02740024  RH  020%=      5-min Rain = 0
KSB1 150716Z 30005KT 27/02 A3001 RMK A01 T02740024  RH  020%=      5-min Rain = 0
KSB1 150717Z 31005KT 27/02 A3001 RMK A01 T02740024  RH  020%=      5-min Rain = 0
KSB1 150718Z 30005KT 27/02 A3001 RMK A01 T02740023  RH  020%=      5-min Rain = 0
KSB1 150719Z 31005KT 28/02 A3001 RMK A01 T02750024  RH  020%=      5-min Rain = 0
KSB1 150720Z 30006KT 27/02 A3001 RMK A01 T02740024  RH  020%=      5-min Rain = 0
KSB1 150721Z 30005KT 27/02 A30 RMK A01 T02740024  RH  020%=      5-min Rain = 0
KSB1 150722Z 30006KT 27/02 A3001 RMK A01 T02740024  RH  020%=      5-min Rain = 0
KSB1 150723Z 33005KT 27/03 A30 RMK A01 T02740025  RH  020%=      5-min Rain = 0
KSB1 150724Z 32006KT 27/03 A3001 RMK A01 T02730025  RH  020%=      5-min Rain = 0
KSB1 150725Z 30004KT 27/02 A3001 RMK A01 T02720024  RH  020%=      5-min Rain = 0
KSB1 150726Z 31004KT 27/02 A3001 RMK A01 T02710023  RH  020%=      5-min Rain = 0
KSB1 150727Z 30005KT 27/02 A3001 RMK A01 T02700024  RH  020%=      5-min Rain = 0
KSB1 150728Z 30006KT 27/02 A3001 RMK A01 T02700024  RH  020%=      5-min Rain = 0
KSB1 150729Z 31007KT 27/03 A3001 RMK A01 T02700025  RH  020%=      5-min Rain = 0
KSB1 150730Z 30007KT 27/03 A3001 RMK A01 T02710025  RH  020%=      5-min Rain = 0
KSB1 150731Z 31005KT 27/03 A3001 RMK A01 T02710025  RH  020%=      5-min Rain = 0
KSB1 150732Z 31006KT 27/03 A3001 RMK A01 T02710025  RH  020%=      5-min Rain = 0
KSB1 150733Z 31007KT 27/03 A3001 RMK A01 T02710025  RH  020%=      5-min Rain = 0
KSB1 150734Z 30007KT 27/03 A30 RMK A01 T02710025  RH  020%=      5-min Rain = 0
KSB1 150735Z 31008KT 27/03 A30 RMK A01 T02720026  RH  020%=      5-min Rain = 0
KSB1 150736Z 32008KT 27/03 A30 RMK A01 T02720026  RH  020%=      5-min Rain = 0
KSB1 150737Z 33007KT 27/03 A30 RMK A01 T02720026  RH  020%=      5-min Rain = 0
KSB1 150738Z 33009KT 27/03 A30 RMK A01 T02730026  RH  020%=      5-min Rain = 0
KSB1 150739Z 33008KT 27/03 A3001 RMK A01 T02730025  RH  020%=      5-min Rain = 0
KSB1 150740Z 33007KT 27/02 A3001 RMK A01 T02700024  RH  020%=      5-min Rain = 0
KSB1 150741Z 32007KT 27/02 A3001 RMK A01 T02670024  RH  021%=      5-min Rain = 0
KSB1 150742Z 30009KT 27/03 A3001 RMK A01 T02660026  RH  021%=      5-min Rain = 0
KSB1 150743Z 31007KT 27/03 A3001 RMK A01 T02660027  RH  021%=      5-min Rain = 0
KSB1 150744Z 31006KT 27/03 A3001 RMK A01 T02660026  RH  021%=      5-min Rain = 0
KSB1 150745Z 31007KT 27/03 A3001 RMK A01 T02660027  RH  021%=      5-min Rain = 0
KSB1 150746Z 31006KT 27/03 A3001 RMK A01 T02660027  RH  021%=      5-min Rain = 0
KSB1 150747Z 30006KT 27/03 A3001 RMK A01 T02670028  RH  021%=      5-min Rain = 0
KSB1 150748Z 31005KT 27/03 A3001 RMK A01 T02660029  RH  022%=      5-min Rain = 0
KSB1 150749Z 30007KT 27/03 A3001 RMK A01 T02650029  RH  022%=      5-min Rain = 0
KSB1 150750Z 30007KT 27/03 A3001 RMK A01 T02660029  RH  022%=      5-min Rain = 0
KSB1 150751Z 29005KT 27/03 A3001 RMK A01 T02680030  RH  021%=      5-min Rain = 0
KSB1 150752Z 29005KT 27/03 A3001 RMK A01 T02680030  RH  021%=      5-min Rain = 0
KSB1 150753Z 30005KT 27/03 A3001 RMK A01 T02680030  RH  022%=      5-min Rain = 0
KSB1 150754Z 29007KT 27/03 A3001 RMK A01 T02680030  RH  022%=      5-min Rain = 0
KSB1 150755Z 30007KT 27/03 A3001 RMK A01 T02680030  RH  022%=      5-min Rain = 0
KSB1 150756Z 30008KT 27/03 A30 RMK A01 T02680030  RH  022%=      5-min Rain = 0
KSB1 150757Z 30005KT 27/03 A3001 RMK A01 T02690030  RH  021%=      5-min Rain = 0
KSB1 150758Z 30007KT 27/03 A3001 RMK A01 T02690030  RH  021%=      5-min Rain = 0
KSB1 150759Z 31005KT 27/03 A3001 RMK A01 T02690030  RH  021%=      5-min Rain = 0
KSB1 150800Z 31005KT 27/03 A3001 RMK A01 T02690031  RH  021%=      5-min Rain = 0
KSB1 150801Z 32006KT 27/03 A3001 RMK A01 T02690030  RH  021%=      5-min Rain = 0
KSB1 150802Z 33005KT 27/03 A3001 RMK A01 T02680031  RH  022%=      5-min Rain = 0
KSB1 150803Z 31007KT 27/03 A3001 RMK A01 T02670030  RH  022%=      5-min Rain = 0
KSB1 150804Z 31006KT 27/03 A3001 RMK A01 T02660030  RH  022%=      5-min Rain = 0
KSB1 150805Z 31005KT 27/03 A3001 RMK A01 T02650030  RH  022%=      5-min Rain = 0
KSB1 150806Z 31006KT 26/03 A30 RMK A01 T02640030  RH  022%=      5-min Rain = 0
KSB1 150807Z 30008KT 26/03 A30 RMK A01 T02640030  RH  022%=      5-min Rain = 0
KSB1 150808Z 30007KT 26/03 A30 RMK A01 T02640030  RH  022%=      5-min Rain = 0
KSB1 150809Z 30008KT 26/03 A30 RMK A01 T02640031  RH  022%=      5-min Rain = 0
KSB1 150810Z 30007KT 27/03 A30 RMK A01 T02670030  RH  022%=      5-min Rain = 0
KSB1 150811Z 29006KT 27/03 A30 RMK A01 T02690031  RH  022%=      5-min Rain = 0
KSB1 150812Z 30007KT 27/03 A30 RMK A01 T02680031  RH  022%=      5-min Rain = 0
KSB1 150813Z 29006KT 27/03 A30 RMK A01 T02670031  RH  022%=      5-min Rain = 0
KSB1 150814Z 29005KT 27/03 A30 RMK A01 T02660031  RH  022%=      5-min Rain = 0
KSB1 150815Z 29006KT 27/03 A30 RMK A01 T02650032  RH  022%=      5-min Rain = 0
KSB1 150816Z 30005KT 26/03 A30 RMK A01 T02640031  RH  022%=      5-min Rain = 0
KSB1 150817Z 28006KT 26/03 A30 RMK A01 T02640032  RH  022%=      5-min Rain = 0
KSB1 150818Z 29006KT 26/03 A30 RMK A01 T02640032  RH  022%=      5-min Rain = 0
KSB1 150819Z 29007KT 26/03 A30 RMK A01 T02640032  RH  022%=      5-min Rain = 0
KSB1 150820Z 30006KT 26/03 A30 RMK A01 T02630032  RH  022%=      5-min Rain = 0
KSB1 150821Z 29006KT 26/03 A30 RMK A01 T02640032  RH  022%=      5-min Rain = 0
KSB1 150822Z 29008KT 26/03 A30 RMK A01 T02630032  RH  022%=      5-min Rain = 0
KSB1 150823Z 31008G14KT 26/03 A30 RMK A01 T02640032  RH  022%=      5-min Rain = 0
KSB1 150824Z 29007KT 27/03 A30 RMK A01 T02650032  RH  022%=      5-min Rain = 0
KSB1 150825Z 30007KT 27/03 A30 RMK A01 T02650033  RH  022%=      5-min Rain = 0
KSB1 150826Z 30007KT 27/03 A30 RMK A01 T02650032  RH  022%=      5-min Rain = 0
KSB1 150827Z 30007KT 27/03 A30 RMK A01 T02650032  RH  022%=      5-min Rain = 0
KSB1 150828Z 29006KT 27/03 A30 RMK A01 T02650033  RH  022%=      5-min Rain = 0
KSB1 150829Z 29007KT 27/03 A30 RMK A01 T02660033  RH  022%=      5-min Rain = 0
KSB1 150830Z 30006KT 27/03 A30 RMK A01 T02660033  RH  022%=      5-min Rain = 0
KSB1 150831Z 29009KT 27/03 A30 RMK A01 T02650033  RH  022%=      5-min Rain = 0
KSB1 150832Z 29009KT 27/03 A30 RMK A01 T02650033  RH  022%=      5-min Rain = 0
KSB1 150833Z 30006KT 27/03 A30 RMK A01 T02670033  RH  022%=      5-min Rain = 0
KSB1 150834Z 29007KT 27/03 A30 RMK A01 T02670033  RH  022%=      5-min Rain = 0
KSB1 150835Z 29007KT 27/03 A30 RMK A01 T02670033  RH  022%=      5-min Rain = 0
KSB1 150836Z 28007KT 27/03 A30 RMK A01 T02660033  RH  022%=      5-min Rain = 0
KSB1 150837Z 28008KT 27/03 A30 RMK A01 T02660034  RH  022%=      5-min Rain = 0
KSB1 150838Z 28007KT 27/03 A30 RMK A01 T02650033  RH  022%=      5-min Rain = 0
KSB1 150839Z 28009KT 26/03 A30 RMK A01 T02630033  RH  023%=      5-min Rain = 0
KSB1 150840Z 28008KT 26/03 A30 RMK A01 T02630034  RH  023%=      5-min Rain = 0
KSB1 150841Z 28007KT 26/03 A30 RMK A01 T02620034  RH  023%=      5-min Rain = 0
KSB1 150842Z 28007KT 26/03 A30 RMK A01 T02610034  RH  023%=      5-min Rain = 0
KSB1 150843Z 28006KT 26/03 A30 RMK A01 T02610034  RH  023%=      5-min Rain = 0
KSB1 150844Z 28007KT 26/03 A30 RMK A01 T02600034  RH  023%=      5-min Rain = 0
KSB1 150845Z 28008KT 26/03 A30 RMK A01 T02600034  RH  023%=      5-min Rain = 0
KSB1 150846Z 28008KT 26/03 A30 RMK A01 T02600034  RH  023%=      5-min Rain = 0
KSB1 150847Z 28007KT 26/03 A30 RMK A01 T02600034  RH  023%=      5-min Rain = 0
KSB1 150848Z 28008KT 26/03 A30 RMK A01 T02610034  RH  023%=      5-min Rain = 0
KSB1 150849Z 27009KT 26/03 A30 RMK A01 T02620034  RH  023%=      5-min Rain = 0
KSB1 150850Z 28009KT 26/03 A30 RMK A01 T02630034  RH  023%=      5-min Rain = 0
KSB1 150851Z 28011KT 26/03 A30 RMK A01 T02630034  RH  023%=      5-min Rain = 0
KSB1 150852Z 27010KT 26/04 A30 RMK A01 T02640035  RH  023%=      5-min Rain = 0
KSB1 150853Z 28009KT 27/04 A30 RMK A01 T02650035  RH  023%=      5-min Rain = 0
KSB1 150854Z 29008KT 27/04 A30 RMK A01 T02650035  RH  023%=      5-min Rain = 0
KSB1 150855Z 26009KT 26/04 A30 RMK A01 T02640035  RH  023%=      5-min Rain = 0
KSB1 150856Z 27009KT 26/04 A30 RMK A01 T02630035  RH  023%=      5-min Rain = 0
KSB1 150857Z 28008KT 26/04 A30 RMK A01 T02630035  RH  023%=      5-min Rain = 0
KSB1 150858Z 29007KT 26/04 A30 RMK A01 T02630035  RH  023%=      5-min Rain = 0
KSB1 150859Z 28006KT 26/04 A30 RMK A01 T02610035  RH  023%=      5-min Rain = 0
KSB1 150900Z 28008KT 26/04 A30 RMK A01 T02600035  RH  023%=      5-min Rain = 0
KSB1 150901Z 28008KT 26/04 A30 RMK A01 T02600035  RH  023%=      5-min Rain = 0
KSB1 150902Z 29007KT 26/04 A30 RMK A01 T02600035  RH  023%=      5-min Rain = 0
KSB1 150903Z 29008KT 26/04 A30 RMK A01 T02600035  RH  023%=      5-min Rain = 0
KSB1 150904Z 29006KT 26/04 A30 RMK A01 T02600036  RH  023%=      5-min Rain = 0
KSB1 150905Z 29007KT 26/04 A30 RMK A01 T02600036  RH  023%=      5-min Rain = 0
KSB1 150906Z 29007KT 26/04 A30 RMK A01 T02600037  RH  024%=      5-min Rain = 0
KSB1 150907Z 28007KT 26/04 A30 RMK A01 T02600036  RH  024%=      5-min Rain = 0
KSB1 150908Z 28011KT 26/04 A30 RMK A01 T02600037  RH  024%=      5-min Rain = 0
KSB1 150909Z 28009KT 26/04 A30 RMK A01 T02610038  RH  024%=      5-min Rain = 0
KSB1 150910Z 28008KT 26/04 A30 RMK A01 T02610038  RH  024%=      5-min Rain = 0
KSB1 150911Z 27010KT 26/04 A30 RMK A01 T02620038  RH  024%=      5-min Rain = 0
KSB1 150912Z 28007KT 26/04 A30 RMK A01 T02630038  RH  023%=      5-min Rain = 0
KSB1 150913Z 27008KT 26/04 A30 RMK A01 T02630038  RH  023%=      5-min Rain = 0
KSB1 150914Z 28008KT 26/04 A30 RMK A01 T02620038  RH  024%=      5-min Rain = 0
KSB1 150915Z 28007KT 26/04 A3001 RMK A01 T02620038  RH  024%=      5-min Rain = 0
KSB1 150916Z 28008KT 26/04 A3001 RMK A01 T02610038  RH  024%=      5-min Rain = 0
KSB1 150917Z 28008KT 26/04 A30 RMK A01 T02610038  RH  024%=      5-min Rain = 0
KSB1 150918Z 29007KT 26/04 A30 RMK A01 T02610038  RH  024%=      5-min Rain = 0
KSB1 150919Z 29007KT 26/04 A30 RMK A01 T02610038  RH  024%=      5-min Rain = 0
KSB1 150920Z 29007KT 26/04 A30 RMK A01 T02600038  RH  024%=      5-min Rain = 0
KSB1 150921Z 28008G13KT 26/04 A3001 RMK A01 T02600038  RH  024%=      5-min Rain = 0
KSB1 150922Z 29007KT 26/04 A30 RMK A01 T02600039  RH  024%=      5-min Rain = 0
KSB1 150923Z 27008KT 26/04 A30 RMK A01 T02610039  RH  024%=      5-min Rain = 0
KSB1 150924Z 27010KT 26/04 A30 RMK A01 T02610040  RH  024%=      5-min Rain = 0
KSB1 150925Z 28010KT 26/04 A30 RMK A01 T02610041  RH  024%=      5-min Rain = 0
KSB1 150926Z 28011KT 26/04 A30 RMK A01 T02620041  RH  024%=      5-min Rain = 0
KSB1 150927Z 28009KT 26/04 A3001 RMK A01 T02630041  RH  024%=      5-min Rain = 0
KSB1 150928Z 28011KT 26/04 A30 RMK A01 T02640042  RH  024%=      5-min Rain = 0
KSB1 150929Z 28011KT 26/04 A30 RMK A01 T02640043  RH  024%=      5-min Rain = 0
KSB1 150930Z 29010KT 27/04 A30 RMK A01 T02650043  RH  024%=      5-min Rain = 0
KSB1 150931Z 28010KT 27/04 A3001 RMK A01 T02650043  RH  024%=      5-min Rain = 0
KSB1 150932Z 27012KT 27/04 A30 RMK A01 T02650044  RH  024%=      5-min Rain = 0
KSB1 150933Z 28012KT 27/04 A30 RMK A01 T02650043  RH  024%=      5-min Rain = 0
KSB1 150934Z 28012KT 27/04 A30 RMK A01 T02660044  RH  024%=      5-min Rain = 0
KSB1 150935Z 28011KT 27/04 A3001 RMK A01 T02660044  RH  024%=      5-min Rain = 0
KSB1 150936Z 27010KT 27/04 A3001 RMK A01 T02660044  RH  024%=      5-min Rain = 0
KSB1 150937Z 27011KT 27/04 A30 RMK A01 T02660044  RH  024%=      5-min Rain = 0
KSB1 150938Z 27016KT 27/05 A30 RMK A01 T02650045  RH  024%=      5-min Rain = 0
KSB1 150939Z 27013KT 27/05 A3001 RMK A01 T02670045  RH  024%=      5-min Rain = 0
KSB1 150940Z 27013KT 27/05 A3001 RMK A01 T02680045  RH  024%=      5-min Rain = 0
KSB1 150941Z 27012KT 27/05 A3001 RMK A01 T02680045  RH  024%=      5-min Rain = 0
KSB1 150942Z 28011KT 27/05 A3001 RMK A01 T02680045  RH  024%=      5-min Rain = 0
KSB1 150943Z 28012KT 27/05 A3001 RMK A01 T02670045  RH  024%=      5-min Rain = 0
KSB1 150944Z 29011KT 27/04 A3001 RMK A01 T02670044  RH  024%=      5-min Rain = 0
KSB1 150945Z 28010KT 27/04 A3001 RMK A01 T02660044  RH  024%=      5-min Rain = 0
KSB1 150946Z 28009KT 27/05 A3001 RMK A01 T02660045  RH  024%=      5-min Rain = 0
KSB1 150947Z 28010KT 27/05 A3001 RMK A01 T02650045  RH  024%=      5-min Rain = 0
KSB1 150948Z 27010KT 27/05 A3001 RMK A01 T02650045  RH  024%=      5-min Rain = 0
KSB1 150949Z 28010KT 26/05 A3001 RMK A01 T02640045  RH  024%=      5-min Rain = 0
KSB1 150950Z 28011KT 26/05 A3001 RMK A01 T02640045  RH  024%=      5-min Rain = 0
KSB1 150951Z 28012KT 26/05 A3001 RMK A01 T02640045  RH  024%=      5-min Rain = 0
KSB1 150952Z 27013KT 27/05 A3001 RMK A01 T02650045  RH  024%=      5-min Rain = 0
KSB1 150953Z 27010KT 27/05 A3001 RMK A01 T02650045  RH  024%=      5-min Rain = 0
KSB1 150954Z 28011KT 27/05 A3001 RMK A01 T02650045  RH  024%=      5-min Rain = 0
KSB1 150955Z 28009KT 27/05 A3001 RMK A01 T02650045  RH  024%=      5-min Rain = 0
KSB1 150956Z 27011G16KT 26/05 A3001 RMK A01 T02640045  RH  024%=      5-min Rain = 0
KSB1 150957Z 28011KT 26/05 A3001 RMK A01 T02640045  RH  024%=      5-min Rain = 0
KSB1 150958Z 28010KT 26/05 A3001 RMK A01 T02640045  RH  024%=      5-min Rain = 0
KSB1 150959Z 28011KT 26/05 A3001 RMK A01 T02640045  RH  024%=      5-min Rain = 0
KSB1 151000Z 27010KT 26/05 A3001 RMK A01 T02640045  RH  024%=      5-min Rain = 0
KSB1 151001Z 28011KT 26/05 A3001 RMK A01 T02640045  RH  024%=      5-min Rain = 0
KSB1 151002Z 28011KT 26/05 A3001 RMK A01 T02640045  RH  024%=      5-min Rain = 0
KSB1 151003Z 27010KT 26/05 A3001 RMK A01 T02640045  RH  024%=      5-min Rain = 0
KSB1 151004Z 27011KT 26/05 A3001 RMK A01 T02640045  RH  024%=      5-min Rain = 0
KSB1 151005Z 28010KT 26/05 A3001 RMK A01 T02640045  RH  024%=      5-min Rain = 0
KSB1 151006Z 28009KT 26/05 A3001 RMK A01 T02640045  RH  025%=      5-min Rain = 0
KSB1 151007Z 27010KT 26/05 A3001 RMK A01 T02630045  RH  025%=      5-min Rain = 0
KSB1 151008Z 28009KT 26/05 A3001 RMK A01 T02630045  RH  025%=      5-min Rain = 0
KSB1 151009Z 28010KT 26/05 A3001 RMK A01 T02630045  RH  025%=      5-min Rain = 0
KSB1 151010Z 28010KT 26/05 A3001 RMK A01 T02620045  RH  025%=      5-min Rain = 0
KSB1 151011Z 28009KT 26/05 A3001 RMK A01 T02620045  RH  025%=      5-min Rain = 0
KSB1 151012Z 28010KT 26/05 A3001 RMK A01 T02620045  RH  025%=      5-min Rain = 0
KSB1 151013Z 28010KT 26/05 A3001 RMK A01 T02620045  RH  025%=      5-min Rain = 0
KSB1 151014Z 29008KT 26/05 A3001 RMK A01 T02620045  RH  025%=      5-min Rain = 0
KSB1 151015Z 29009KT 26/05 A3001 RMK A01 T02620045  RH  025%=      5-min Rain = 0
KSB1 151016Z 29010KT 26/04 A3001 RMK A01 T02610044  RH  025%=      5-min Rain = 0
KSB1 151017Z 29009KT 26/04 A3001 RMK A01 T02610044  RH  025%=      5-min Rain = 0
KSB1 151018Z 28010KT 26/05 A3001 RMK A01 T02620045  RH  025%=      5-min Rain = 0
KSB1 151019Z 29008KT 26/04 A3001 RMK A01 T02620044  RH  025%=      5-min Rain = 0
KSB1 151020Z 29007KT 26/05 A3002 RMK A01 T02610045  RH  025%=      5-min Rain = 0
KSB1 151021Z 30008KT 26/05 A3001 RMK A01 T02610045  RH  025%=      5-min Rain = 0
KSB1 151022Z 30008KT 26/05 A3001 RMK A01 T02600045  RH  025%=      5-min Rain = 0
KSB1 151023Z 31008KT 26/04 A3002 RMK A01 T02610044  RH  025%=      5-min Rain = 0
KSB1 151024Z 30008KT 26/05 A3002 RMK A01 T02620045  RH  025%=      5-min Rain = 0
KSB1 151025Z 31009KT 26/05 A3002 RMK A01 T02620045  RH  025%=      5-min Rain = 0
KSB1 151026Z 30008KT 26/04 A3002 RMK A01 T02620044  RH  025%=      5-min Rain = 0
KSB1 151027Z 29010KT 26/04 A3002 RMK A01 T02610044  RH  025%=      5-min Rain = 0
KSB1 151028Z 29010KT 26/04 A3002 RMK A01 T02610043  RH  025%=      5-min Rain = 0
KSB1 151029Z 30011KT 26/04 A3002 RMK A01 T02600042  RH  025%=      5-min Rain = 0
KSB1 151030Z 30010KT 26/04 A3002 RMK A01 T02590042  RH  025%=      5-min Rain = 0
KSB1 151031Z 29011KT 26/04 A3002 RMK A01 T02590041  RH  025%=      5-min Rain = 0
KSB1 151032Z 29012KT 26/04 A3002 RMK A01 T02590041  RH  024%=      5-min Rain = 0
KSB1 151033Z 30010KT 26/04 A3002 RMK A01 T02590040  RH  024%=      5-min Rain = 0
KSB1 151034Z 30010KT 26/04 A3002 RMK A01 T02580041  RH  025%=      5-min Rain = 0
KSB1 151035Z 30009KT 26/04 A3002 RMK A01 T02570041  RH  025%=      5-min Rain = 0
KSB1 151036Z 30011KT 26/04 A3002 RMK A01 T02570041  RH  025%=      5-min Rain = 0
KSB1 151037Z 29009KT 26/04 A3002 RMK A01 T02560040  RH  025%=      5-min Rain = 0
KSB1 151038Z 30010KT 26/04 A3002 RMK A01 T02560040  RH  025%=      5-min Rain = 0
KSB1 151039Z 30011KT 26/04 A3002 RMK A01 T02550040  RH  025%=      5-min Rain = 0
KSB1 151040Z 30012KT 26/04 A3002 RMK A01 T02550039  RH  025%=      5-min Rain = 0
KSB1 151041Z 29011KT 26/04 A3002 RMK A01 T02550039  RH  025%=      5-min Rain = 0
KSB1 151042Z 30011KT 26/04 A3002 RMK A01 T02560040  RH  025%=      5-min Rain = 0
KSB1 151043Z 29013KT 26/04 A3002 RMK A01 T02550039  RH  025%=      5-min Rain = 0
KSB1 151044Z 30009KT 26/04 A3002 RMK A01 T02550040  RH  025%=      5-min Rain = 0
KSB1 151045Z 29010KT 25/04 A3002 RMK A01 T02540040  RH  025%=      5-min Rain = 0
KSB1 151046Z 30010KT 25/04 A3002 RMK A01 T02540040  RH  025%=      5-min Rain = 0
KSB1 151047Z 29008KT 25/04 A3002 RMK A01 T02540039  RH  025%=      5-min Rain = 0
KSB1 151048Z 29010KT 25/04 A3002 RMK A01 T02540040  RH  025%=      5-min Rain = 0
KSB1 151049Z 30012KT 25/04 A3002 RMK A01 T02530039  RH  025%=      5-min Rain = 0
KSB1 151050Z 30008KT 25/04 A3002 RMK A01 T02540039  RH  025%=      5-min Rain = 0
KSB1 151051Z 30010KT 25/04 A3002 RMK A01 T02540040  RH  025%=      5-min Rain = 0
KSB1 151052Z 29007KT 25/04 A3002 RMK A01 T02530040  RH  025%=      5-min Rain = 0
KSB1 151053Z 30010KT 25/04 A3002 RMK A01 T02530040  RH  025%=      5-min Rain = 0
KSB1 151054Z 30008KT 25/04 A3003 RMK A01 T02530040  RH  025%=      5-min Rain = 0
KSB1 151055Z 30010KT 25/04 A3003 RMK A01 T02530040  RH  025%=      5-min Rain = 0
KSB1 151056Z 30009KT 25/04 A3003 RMK A01 T02530040  RH  025%=      5-min Rain = 0
KSB1 151057Z 30009KT 25/04 A3003 RMK A01 T02530040  RH  025%=      5-min Rain = 0
KSB1 151058Z 30009KT 25/04 A3003 RMK A01 T02520040  RH  025%=      5-min Rain = 0
KSB1 151059Z 29009KT 25/04 A3003 RMK A01 T02520040  RH  025%=      5-min Rain = 0
KSB1 151100Z 29009KT 25/04 A3003 RMK A01 T02520040  RH  025%=      5-min Rain = 0
KSB1 151101Z 29009KT 25/04 A3003 RMK A01 T02510040  RH  025%=      5-min Rain = 0
KSB1 151102Z 30008KT 25/04 A3003 RMK A01 T02510040  RH  026%=      5-min Rain = 0
KSB1 151103Z 30009KT 25/04 A3003 RMK A01 T02510040  RH  026%=      5-min Rain = 0
KSB1 151104Z 31008KT 25/04 A3003 RMK A01 T02500040  RH  026%=      5-min Rain = 0
KSB1 151105Z 29008KT 25/04 A3003 RMK A01 T02500040  RH  026%=      5-min Rain = 0
KSB1 151106Z 29007KT 25/04 A3003 RMK A01 T02490040  RH  026%=      5-min Rain = 0
KSB1 151107Z 30008KT 25/04 A3003 RMK A01 T02490040  RH  026%=      5-min Rain = 0
KSB1 151108Z 29009KT 25/04 A3003 RMK A01 T02490040  RH  026%=      5-min Rain = 0
KSB1 151109Z 29008KT 25/04 A3003 RMK A01 T02490040  RH  026%=      5-min Rain = 0
KSB1 151110Z 30008KT 25/04 A3003 RMK A01 T02490040  RH  026%=      5-min Rain = 0
KSB1 151111Z 30007KT 25/04 A3003 RMK A01 T02490040  RH  026%=      5-min Rain = 0
KSB1 151112Z 29008KT 25/04 A3003 RMK A01 T02490040  RH  026%=      5-min Rain = 0
KSB1 151113Z 29009KT 25/04 A3003 RMK A01 T02480040  RH  026%=      5-min Rain = 0
KSB1 151114Z 29009KT 25/04 A3003 RMK A01 T02480040  RH  026%=      5-min Rain = 0
KSB1 151115Z 30009KT 25/04 A3003 RMK A01 T02480040  RH  026%=      5-min Rain = 0
KSB1 151116Z 30010KT 25/04 A3003 RMK A01 T02480040  RH  026%=      5-min Rain = 0
KSB1 151117Z 30009KT 25/04 A3003 RMK A01 T02490040  RH  026%=      5-min Rain = 0
KSB1 151118Z 29009KT 25/04 A3003 RMK A01 T02490040  RH  026%=      5-min Rain = 0
KSB1 151119Z 30009KT 25/04 A3003 RMK A01 T02490040  RH  026%=      5-min Rain = 0
KSB1 151120Z 29006KT 25/04 A3003 RMK A01 T02480040  RH  026%=      5-min Rain = 0
KSB1 151121Z 30008KT 25/04 A3003 RMK A01 T02450040  RH  026%=      5-min Rain = 0
KSB1 151122Z 29008KT 25/04 A3003 RMK A01 T02450040  RH  027%=      5-min Rain = 0
KSB1 151123Z 30008KT 24/04 A3003 RMK A01 T02440040  RH  027%=      5-min Rain = 0
KSB1 151124Z 30008KT 25/04 A3003 RMK A01 T02450040  RH  027%=      5-min Rain = 0
KSB1 151125Z 30010KT 25/04 A3003 RMK A01 T02460040  RH  026%=      5-min Rain = 0
KSB1 151126Z 30009KT 25/04 A3003 RMK A01 T02470040  RH  026%=      5-min Rain = 0
KSB1 151127Z 29010KT 25/04 A3003 RMK A01 T02480040  RH  026%=      5-min Rain = 0
KSB1 151128Z 29008KT 25/04 A3003 RMK A01 T02490040  RH  026%=      5-min Rain = 0
KSB1 151129Z 30006KT 25/04 A3003 RMK A01 T02490041  RH  026%=      5-min Rain = 0
KSB1 151130Z 29007KT 25/04 A3003 RMK A01 T02480041  RH  026%=      5-min Rain = 0
KSB1 151131Z 30008KT 25/04 A3003 RMK A01 T02480041  RH  026%=      5-min Rain = 0
KSB1 151132Z 30008KT 25/04 A3003 RMK A01 T02480041  RH  026%=      5-min Rain = 0
KSB1 151133Z 30007KT 25/04 A3003 RMK A01 T02480041  RH  026%=      5-min Rain = 0
KSB1 151134Z 29008KT 25/04 A3003 RMK A01 T02480041  RH  026%=      5-min Rain = 0
KSB1 151135Z 29008KT 25/04 A3003 RMK A01 T02480040  RH  026%=      5-min Rain = 0
KSB1 151136Z 29007KT 25/04 A3003 RMK A01 T02470040  RH  026%=      5-min Rain = 0
KSB1 151137Z 29006KT 25/04 A3004 RMK A01 T02470041  RH  026%=      5-min Rain = 0
KSB1 151138Z 30006KT 25/04 A3004 RMK A01 T02460041  RH  026%=      5-min Rain = 0
KSB1 151139Z 30008KT 25/04 A3003 RMK A01 T02450040  RH  027%=      5-min Rain = 0
KSB1 151140Z 30007KT 25/04 A3004 RMK A01 T02450041  RH  027%=      5-min Rain = 0
KSB1 151141Z 30006KT 25/04 A3004 RMK A01 T02450040  RH  027%=      5-min Rain = 0
KSB1 151142Z 29005KT 25/04 A3004 RMK A01 T02450040  RH  027%=      5-min Rain = 0
KSB1 151143Z 28005KT 25/04 A3004 RMK A01 T02450040  RH  027%=      5-min Rain = 0
KSB1 151144Z 29006KT 24/04 A3004 RMK A01 T02430040  RH  027%=      5-min Rain = 0
KSB1 151145Z 30006KT 24/04 A3004 RMK A01 T02400040  RH  027%=      5-min Rain = 0
KSB1 151146Z 29005KT 24/04 A3004 RMK A01 T02390040  RH  028%=      5-min Rain = 0
KSB1 151147Z 30006KT 24/04 A3004 RMK A01 T02380041  RH  028%=      5-min Rain = 0
KSB1 151148Z 29006KT 24/04 A3004 RMK A01 T02380041  RH  028%=      5-min Rain = 0
KSB1 151149Z 29005KT 24/04 A3004 RMK A01 T02390040  RH  027%=      5-min Rain = 0
KSB1 151150Z 30006KT 24/04 A3004 RMK A01 T02390040  RH  027%=      5-min Rain = 0
KSB1 151151Z 30006KT 24/04 A3004 RMK A01 T02400040  RH  027%=      5-min Rain = 0
KSB1 151152Z 30004KT 24/04 A3004 RMK A01 T02400040  RH  027%=      5-min Rain = 0
KSB1 151153Z 30006KT 24/04 A3004 RMK A01 T02400040  RH  027%=      5-min Rain = 0
KSB1 151154Z 30005KT 24/04 A3004 RMK A01 T02400041  RH  027%=      5-min Rain = 0
KSB1 151155Z 30006KT 24/04 A3004 RMK A01 T02400040  RH  027%=      5-min Rain = 0
KSB1 151156Z 30005KT 24/04 A3004 RMK A01 T02400041  RH  027%=      5-min Rain = 0
KSB1 151157Z 30006KT 24/04 A3004 RMK A01 T02400040  RH  027%=      5-min Rain = 0
KSB1 151158Z 31007KT 24/04 A3004 RMK A01 T02410040  RH  027%=      5-min Rain = 0
KSB1 151159Z 31007KT 24/04 A3004 RMK A01 T02420040  RH  027%=      5-min Rain = 0
KSB1 151200Z 31007KT 24/04 A3004 RMK A01 T02420040  RH  027%=      5-min Rain = 0
KSB1 151201Z 32007KT 24/04 A3004 RMK A01 T02430040  RH  027%=      5-min Rain = 0
KSB1 151202Z 31007KT 25/04 A3004 RMK A01 T02450040  RH  026%=      5-min Rain = 0
KSB1 151203Z 31006KT 25/04 A3004 RMK A01 T02450040  RH  026%=      5-min Rain = 0
KSB1 151204Z 31006KT 24/04 A3004 RMK A01 T02440040  RH  027%=      5-min Rain = 0
KSB1 151205Z 31006KT 24/04 A3004 RMK A01 T02440040  RH  027%=      5-min Rain = 0
KSB1 151206Z 30005KT 24/04 A3004 RMK A01 T02430040  RH  027%=      5-min Rain = 0
KSB1 151207Z 31005KT 24/04 A3004 RMK A01 T02420041  RH  027%=      5-min Rain = 0
KSB1 151208Z 31005KT 24/04 A3004 RMK A01 T02410040  RH  027%=      5-min Rain = 0
KSB1 151209Z 32005KT 24/04 A3004 RMK A01 T02420041  RH  027%=      5-min Rain = 0
KSB1 151210Z 32006KT 24/04 A3004 RMK A01 T02410041  RH  027%=      5-min Rain = 0
KSB1 151211Z 31006KT 24/04 A3004 RMK A01 T02410040  RH  027%=      5-min Rain = 0
KSB1 151212Z 32005KT 24/04 A3004 RMK A01 T02410041  RH  027%=      5-min Rain = 0
KSB1 151213Z 31006KT 24/04 A3005 RMK A01 T02410041  RH  027%=      5-min Rain = 0
KSB1 151214Z 31006KT 24/04 A3005 RMK A01 T02410041  RH  027%=      5-min Rain = 0
KSB1 151215Z 32005KT 24/04 A3005 RMK A01 T02400040  RH  027%=      5-min Rain = 0
KSB1 151216Z 31006KT 24/04 A3005 RMK A01 T02400040  RH  027%=      5-min Rain = 0
KSB1 151217Z 31006KT 24/04 A3005 RMK A01 T02400040  RH  027%=      5-min Rain = 0
KSB1 151218Z 31006KT 24/04 A3005 RMK A01 T02400041  RH  027%=      5-min Rain = 0
KSB1 151219Z 32005KT 24/04 A3005 RMK A01 T02410041  RH  027%=      5-min Rain = 0
KSB1 151220Z 31006KT 24/04 A3005 RMK A01 T02410041  RH  027%=      5-min Rain = 0
KSB1 151221Z 31006KT 24/04 A3005 RMK A01 T02410041  RH  027%=      5-min Rain = 0
KSB1 151222Z 31006KT 24/04 A3005 RMK A01 T02400041  RH  027%=      5-min Rain = 0
KSB1 151223Z 31005KT 24/04 A3005 RMK A01 T02400041  RH  027%=      5-min Rain = 0
KSB1 151224Z 31007KT 24/04 A3005 RMK A01 T02400041  RH  027%=      5-min Rain = 0
KSB1 151225Z 30007KT 24/04 A3005 RMK A01 T02400040  RH  027%=      5-min Rain = 0
KSB1 151226Z 31005KT 24/04 A3005 RMK A01 T02410041  RH  027%=      5-min Rain = 0
KSB1 151227Z 31006KT 24/04 A3005 RMK A01 T02410041  RH  027%=      5-min Rain = 0
KSB1 151228Z 30005KT 24/04 A3005 RMK A01 T02410040  RH  027%=      5-min Rain = 0
KSB1 151229Z 30005KT 24/04 A3005 RMK A01 T02420041  RH  027%=      5-min Rain = 0
KSB1 151230Z 30005KT 24/04 A3005 RMK A01 T02410041  RH  027%=      5-min Rain = 0
KSB1 151231Z 30006KT 24/04 A3005 RMK A01 T02420041  RH  027%=      5-min Rain = 0
KSB1 151232Z 31005KT 24/04 A3006 RMK A01 T02430041  RH  027%=      5-min Rain = 0
KSB1 151233Z 30007KT 24/04 A3006 RMK A01 T02440041  RH  027%=      5-min Rain = 0
KSB1 151234Z 30005KT 24/04 A3006 RMK A01 T02440041  RH  027%=      5-min Rain = 0
KSB1 151235Z 30004KT 25/04 A3006 RMK A01 T02450041  RH  027%=      5-min Rain = 0
KSB1 151236Z 29005KT 25/04 A3006 RMK A01 T02450041  RH  027%=      5-min Rain = 0
KSB1 151237Z 30005KT 25/04 A3006 RMK A01 T02460041  RH  026%=      5-min Rain = 0
KSB1 151238Z 30006KT 25/04 A3006 RMK A01 T02470041  RH  026%=      5-min Rain = 0
KSB1 151239Z 29005KT 25/04 A3006 RMK A01 T02480041  RH  026%=      5-min Rain = 0
KSB1 151240Z 28005KT 25/04 A3006 RMK A01 T02470043  RH  027%=      5-min Rain = 0
KSB1 151241Z 30007KT 25/04 A3006 RMK A01 T02470042  RH  027%=      5-min Rain = 0
KSB1 151242Z 30006KT 25/04 A3006 RMK A01 T02470041  RH  026%=      5-min Rain = 0
KSB1 151243Z 29007KT 25/04 A3006 RMK A01 T02480041  RH  026%=      5-min Rain = 0
KSB1 151244Z 29005KT 25/04 A3006 RMK A01 T02480041  RH  026%=      5-min Rain = 0
KSB1 151245Z 29006KT 25/04 A3006 RMK A01 T02480042  RH  026%=      5-min Rain = 0
KSB1 151246Z 30007KT 25/04 A3006 RMK A01 T02480041  RH  026%=      5-min Rain = 0
KSB1 151247Z 30007KT 25/04 A3006 RMK A01 T02490040  RH  026%=      5-min Rain = 0
KSB1 151248Z 30006KT 25/04 A3006 RMK A01 T02490041  RH  026%=      5-min Rain = 0
KSB1 151249Z 30006KT 25/04 A3006 RMK A01 T02490042  RH  026%=      5-min Rain = 0
KSB1 151250Z 30006KT 25/04 A3006 RMK A01 T02480041  RH  026%=      5-min Rain = 0
KSB1 151251Z 29004KT 25/04 A3006 RMK A01 T02490042  RH  026%=      5-min Rain = 0
KSB1 151252Z 30006KT 25/04 A3006 RMK A01 T02490042  RH  026%=      5-min Rain = 0
KSB1 151253Z 30006KT 25/04 A3006 RMK A01 T02490041  RH  026%=      5-min Rain = 0
KSB1 151254Z 30006KT 25/04 A3006 RMK A01 T02500041  RH  026%=      5-min Rain = 0
KSB1 151255Z 30007KT 25/04 A3006 RMK A01 T02500041  RH  026%=      5-min Rain = 0
KSB1 151256Z 31005KT 25/04 A3006 RMK A01 T02500041  RH  026%=      5-min Rain = 0
KSB1 151257Z 29004KT 25/04 A3006 RMK A01 T02500042  RH  026%=      5-min Rain = 0
KSB1 151258Z 30005KT 25/04 A3006 RMK A01 T02500042  RH  026%=      5-min Rain = 0
KSB1 151259Z 29007KT 25/04 A3006 RMK A01 T02510041  RH  026%=      5-min Rain = 0
KSB1 151300Z 28006KT 25/04 A3006 RMK A01 T02510041  RH  026%=      5-min Rain = 0
KSB1 151301Z 27004KT 25/04 A3006 RMK A01 T02510042  RH  026%=      5-min Rain = 0
KSB1 151302Z 28006KT 25/04 A3006 RMK A01 T02500042  RH  026%=      5-min Rain = 0
KSB1 151303Z 28005KT 25/04 A3006 RMK A01 T02500041  RH  026%=      5-min Rain = 0
KSB1 151304Z 27004KT 25/04 A3006 RMK A01 T02500042  RH  026%=      5-min Rain = 0
KSB1 151305Z 27004KT 25/04 A3006 RMK A01 T02500042  RH  026%=      5-min Rain = 0
KSB1 151306Z 29005KT 25/04 A3006 RMK A01 T02500043  RH  026%=      5-min Rain = 0
KSB1 151307Z 28004KT 25/04 A3006 RMK A01 T02490042  RH  026%=      5-min Rain = 0
KSB1 151308Z 28004KT 25/04 A3007 RMK A01 T02490043  RH  026%=      5-min Rain = 0
KSB1 151309Z 27004KT 25/04 A3007 RMK A01 T02480043  RH  027%=      5-min Rain = 0
KSB1 151310Z 25003KT 25/05 A3007 RMK A01 T02480045  RH  027%=      5-min Rain = 0
KSB1 151311Z 25003KT 25/05 A3007 RMK A01 T02470051  RH  028%=      5-min Rain = 0
KSB1 151312Z 24002KT 25/05 A3007 RMK A01 T02460054  RH  029%=      5-min Rain = 0
KSB1 151313Z 21003KT 24/06 A3007 RMK A01 T02440056  RH  030%=      5-min Rain = 0
KSB1 151314Z 20003KT 24/06 A3007 RMK A01 T02410056  RH  030%=      5-min Rain = 0
KSB1 151315Z 20003KT 24/06 A3007 RMK A01 T02400055  RH  030%=      5-min Rain = 0
KSB1 151316Z 22003KT 24/06 A3007 RMK A01 T02390056  RH  031%=      5-min Rain = 0
KSB1 151317Z 19003KT 24/06 A3007 RMK A01 T02390057  RH  031%=      5-min Rain = 0
KSB1 151318Z 19004KT 24/06 A3007 RMK A01 T02400056  RH  030%=      5-min Rain = 0
KSB1 151319Z 20003KT 24/05 A3007 RMK A01 T02410052  RH  030%=      5-min Rain = 0
KSB1 151320Z 21004KT 24/05 A3007 RMK A01 T02420048  RH  029%=      5-min Rain = 0
KSB1 151321Z 20004KT 24/05 A3007 RMK A01 T02430049  RH  028%=      5-min Rain = 0
KSB1 151322Z 20005KT 25/05 A3007 RMK A01 T02450049  RH  028%=      5-min Rain = 0
KSB1 151323Z 21004KT 25/05 A3007 RMK A01 T02450049  RH  028%=      5-min Rain = 0
KSB1 151324Z 22003KT 25/05 A3007 RMK A01 T02460049  RH  028%=      5-min Rain = 0
KSB1 151325Z 24002KT 25/05 A3007 RMK A01 T02470048  RH  028%=      5-min Rain = 0
KSB1 151326Z 22001KT 25/05 A3007 RMK A01 T02490047  RH  027%=      5-min Rain = 0
KSB1 151327Z 20002KT 25/05 A3007 RMK A01 T02500048  RH  027%=      5-min Rain = 0
KSB1 151328Z 23001KT 25/05 A3007 RMK A01 T02520048  RH  027%=      5-min Rain = 0
KSB1 151329Z 18001KT 25/05 A3007 RMK A01 T02540049  RH  027%=      5-min Rain = 0
KSB1 151330Z 22002KT 26/05 A3007 RMK A01 T02560048  RH  026%=      5-min Rain = 0
KSB1 151331Z 24002KT 26/05 A3007 RMK A01 T02560046  RH  026%=      5-min Rain = 0
KSB1 151332Z 20001KT 26/05 A3007 RMK A01 T02570046  RH  026%=      5-min Rain = 0
KSB1 151333Z 19002KT 26/05 A3007 RMK A01 T02570047  RH  026%=      5-min Rain = 0
KSB1 151334Z 19001KT 26/05 A3007 RMK A01 T02580049  RH  026%=      5-min Rain = 0
KSB1 151335Z 19001KT 26/05 A3007 RMK A01 T02580049  RH  026%=      5-min Rain = 0
KSB1 151336Z 19001KT 26/05 A3007 RMK A01 T02580049  RH  026%=      5-min Rain = 0
KSB1 151337Z 16001KT 26/05 A3008 RMK A01 T02580050  RH  026%=      5-min Rain = 0
KSB1 151338Z 16001KT 26/05 A3008 RMK A01 T02580051  RH  026%=      5-min Rain = 0
KSB1 151339Z 20001KT 26/05 A3008 RMK A01 T02580052  RH  027%=      5-min Rain = 0
KSB1 151340Z 22001KT 26/05 A3008 RMK A01 T02570053  RH  027%=      5-min Rain = 0
KSB1 151341Z 18000KT 26/05 A3008 RMK A01 T02560049  RH  026%=      5-min Rain = 0
KSB1 151342Z 15001KT 26/05 A3008 RMK A01 T02550048  RH  026%=      5-min Rain = 0
KSB1 151343Z 15001KT 26/05 A3008 RMK A01 T02550050  RH  027%=      5-min Rain = 0
KSB1 151344Z 11003KT 25/05 A3008 RMK A01 T02540054  RH  028%=      5-min Rain = 0
KSB1 151345Z 10003KT 25/06 A3008 RMK A01 T02530058  RH  029%=      5-min Rain = 0
KSB1 151346Z 10004KT 25/06 A3008 RMK A01 T02510057  RH  029%=      5-min Rain = 0
KSB1 151347Z 10004KT 25/06 A3008 RMK A01 T02490055  RH  029%=      5-min Rain = 0
KSB1 151348Z 10004KT 25/05 A3008 RMK A01 T02480054  RH  029%=      5-min Rain = 0
KSB1 151349Z 09004KT 25/06 A3008 RMK A01 T02480055  RH  029%=      5-min Rain = 0
KSB1 151350Z 10003KT 25/06 A3008 RMK A01 T02490055  RH  029%=      5-min Rain = 0
KSB1 151351Z 10003KT 25/06 A3008 RMK A01 T02510057  RH  029%=      5-min Rain = 0
KSB1 151352Z 10003KT 25/06 A3008 RMK A01 T02530060  RH  029%=      5-min Rain = 0
KSB1 151353Z 09003KT 25/06 A3008 RMK A01 T02540062  RH  029%=      5-min Rain = 0
KSB1 151354Z 08003KT 26/06 A3008 RMK A01 T02550062  RH  029%=      5-min Rain = 0
KSB1 151355Z 08004KT 26/06 A3008 RMK A01 T02550062  RH  029%=      5-min Rain = 0
KSB1 151356Z 08003KT 26/06 A3008 RMK A01 T02560061  RH  029%=      5-min Rain = 0
KSB1 151357Z 07003KT 26/06 A3008 RMK A01 T02570063  RH  029%=      5-min Rain = 0
KSB1 151358Z 06003KT 26/06 A3008 RMK A01 T02580062  RH  029%=      5-min Rain = 0
KSB1 151359Z 06003KT 26/06 A3008 RMK A01 T02570059  RH  028%=      5-min Rain = 0
KSB1 151400Z 06002KT 26/06 A3008 RMK A01 T02570062  RH  029%=      5-min Rain = 0
KSB1 151401Z 05002KT 26/06 A3008 RMK A01 T02580062  RH  029%=      5-min Rain = 0
KSB1 151402Z 06003KT 26/06 A3008 RMK A01 T02580060  RH  028%=      5-min Rain = 0
KSB1 151403Z 05002KT 26/06 A3008 RMK A01 T02580058  RH  028%=      5-min Rain = 0
KSB1 151404Z 04002KT 26/06 A3008 RMK A01 T02570057  RH  028%=      5-min Rain = 0
KSB1 151405Z 04002KT 26/06 A3009 RMK A01 T02560056  RH  028%=      5-min Rain = 0
KSB1 151406Z 05002KT 26/06 A3009 RMK A01 T02560055  RH  027%=      5-min Rain = 0
KSB1 151407Z 07002KT 26/06 A3009 RMK A01 T02550056  RH  028%=      5-min Rain = 0
KSB1 151408Z 07002KT 25/06 A3009 RMK A01 T02540056  RH  028%=      5-min Rain = 0
KSB1 151409Z 07002KT 25/06 A3009 RMK A01 T02540055  RH  028%=      5-min Rain = 0
KSB1 151410Z 07002KT 25/06 A3009 RMK A01 T02540055  RH  028%=      5-min Rain = 0
KSB1 151411Z 07001KT 25/06 A3009 RMK A01 T02530055  RH  028%=      5-min Rain = 0
KSB1 151412Z 07001KT 25/06 A3009 RMK A01 T02540056  RH  028%=      5-min Rain = 0
KSB1 151413Z 09001KT 26/06 A3009 RMK A01 T02550057  RH  028%=      5-min Rain = 0
KSB1 151414Z 12001KT 26/06 A3009 RMK A01 T02560058  RH  028%=      5-min Rain = 0
KSB1 151415Z 12003KT 26/06 A3009 RMK A01 T02560057  RH  028%=      5-min Rain = 0
KSB1 151416Z 11003KT 26/06 A3009 RMK A01 T02550058  RH  028%=      5-min Rain = 0
KSB1 151417Z 10003KT 26/06 A3009 RMK A01 T02550057  RH  028%=      5-min Rain = 0
KSB1 151418Z 10003KT 26/06 A3009 RMK A01 T02560056  RH  028%=      5-min Rain = 0
KSB1 151419Z 11004KT 26/05 A3009 RMK A01 T02590054  RH  027%=      5-min Rain = 0
KSB1 151420Z 11003KT 26/05 A3009 RMK A01 T02600053  RH  027%=      5-min Rain = 0
KSB1 151421Z 11003KT 26/05 A3009 RMK A01 T02600052  RH  026%=      5-min Rain = 0
KSB1 151422Z 10003KT 26/05 A3009 RMK A01 T02610054  RH  026%=      5-min Rain = 0
KSB1 151423Z 11003KT 26/05 A3009 RMK A01 T02620054  RH  026%=      5-min Rain = 0
KSB1 151424Z 11002KT 26/06 A3009 RMK A01 T02630055  RH  026%=      5-min Rain = 0
KSB1 151425Z 14002KT 26/06 A3009 RMK A01 T02640057  RH  027%=      5-min Rain = 0
KSB1 151426Z 12002KT 27/06 A3009 RMK A01 T02660058  RH  026%=      5-min Rain = 0
KSB1 151427Z 12003KT 27/06 A3009 RMK A01 T02680056  RH  026%=      5-min Rain = 0
KSB1 151428Z 09003KT 27/06 A3009 RMK A01 T02680056  RH  026%=      5-min Rain = 0
KSB1 151429Z 07003KT 27/06 A3009 RMK A01 T02680057  RH  026%=      5-min Rain = 0
KSB1 151430Z 04003KT 27/06 A3009 RMK A01 T02680056  RH  026%=      5-min Rain = 0
KSB1 151431Z 01002KT 27/06 A3009 RMK A01 T02690057  RH  026%=      5-min Rain = 0
KSB1 151432Z 03005KT 27/06 A3009 RMK A01 T02700058  RH  026%=      5-min Rain = 0
KSB1 151433Z 04003KT 27/06 A3009 RMK A01 T02700058  RH  026%=      5-min Rain = 0
KSB1 151434Z 23002KT 27/06 A3009 RMK A01 T02710057  RH  026%=      5-min Rain = 0
KSB1 151435Z 22002KT 27/06 A3009 RMK A01 T02710057  RH  025%=      5-min Rain = 0
KSB1 151436Z 35001KT 27/06 A3009 RMK A01 T02720055  RH  025%=      5-min Rain = 0
KSB1 151437Z 33005KT 27/06 A3009 RMK A01 T02720055  RH  025%=      5-min Rain = 0
KSB1 151438Z 29005KT 27/05 A3009 RMK A01 T02720051  RH  024%=      5-min Rain = 0
KSB1 151439Z 27008KT 27/05 A3009 RMK A01 T02740052  RH  024%=      5-min Rain = 0
KSB1 151440Z 28009KT 28/05 A3009 RMK A01 T02750051  RH  024%=      5-min Rain = 0
KSB1 151441Z 28010KT 28/05 A3009 RMK A01 T02760051  RH  024%=      5-min Rain = 0
KSB1 151442Z 27010KT 28/05 A3009 RMK A01 T02770050  RH  023%=      5-min Rain = 0
KSB1 151443Z 27009KT 28/05 A3009 RMK A01 T02770052  RH  024%=      5-min Rain = 0
KSB1 151444Z 27010KT 28/05 A3009 RMK A01 T02780052  RH  024%=      5-min Rain = 0
KSB1 151445Z 28010KT 28/05 A3009 RMK A01 T02780051  RH  024%=      5-min Rain = 0
KSB1 151446Z 28011KT 28/05 A3009 RMK A01 T02780050  RH  023%=      5-min Rain = 0
KSB1 151447Z 28010KT 28/05 A3009 RMK A01 T02790051  RH  023%=      5-min Rain = 0
KSB1 151448Z 28010KT 28/05 A3009 RMK A01 T02790051  RH  023%=      5-min Rain = 0
KSB1 151449Z 28011KT 28/05 A3009 RMK A01 T02790049  RH  023%=      5-min Rain = 0
KSB1 151450Z 26011KT 28/05 A3009 RMK A01 T02790049  RH  023%=      5-min Rain = 0
KSB1 151451Z 27011KT 28/05 A3009 RMK A01 T02790050  RH  023%=      5-min Rain = 0
KSB1 151452Z 29010KT 28/05 A3009 RMK A01 T02780049  RH  023%=      5-min Rain = 0
KSB1 151453Z 29011KT 28/05 A3009 RMK A01 T02770049  RH  023%=      5-min Rain = 0
KSB1 151454Z 28010KT 28/05 A3009 RMK A01 T02770049  RH  023%=      5-min Rain = 0
KSB1 151455Z 27011KT 28/05 A3009 RMK A01 T02770051  RH  024%=      5-min Rain = 0
KSB1 151456Z 26012KT 28/05 A3009 RMK A01 T02790050  RH  023%=      5-min Rain = 0
KSB1 151457Z 25009KT 28/05 A3009 RMK A01 T02790047  RH  023%=      5-min Rain = 0
KSB1 151458Z 26008KT 28/05 A3009 RMK A01 T02790048  RH  023%=      5-min Rain = 0
KSB1 151459Z 29009KT 28/05 A3009 RMK A01 T02790049  RH  023%=      5-min Rain = 0
KSB1 151500Z 29011KT 28/05 A3009 RMK A01 T02800050  RH  023%=      5-min Rain = 0
KSB1 151501Z 29012KT 28/05 A3009 RMK A01 T02810048  RH  023%=      5-min Rain = 0
KSB1 151502Z 28012KT 28/05 A3009 RMK A01 T02810049  RH  023%=      5-min Rain = 0
KSB1 151503Z 28009KT 28/05 A3009 RMK A01 T02790050  RH  023%=      5-min Rain = 0
KSB1 151504Z 26010KT 28/05 A3009 RMK A01 T02800050  RH  023%=      5-min Rain = 0
KSB1 151505Z 26008KT 28/05 A3009 RMK A01 T02800048  RH  023%=      5-min Rain = 0
KSB1 151506Z 29009KT 28/05 A3009 RMK A01 T02810049  RH  023%=      5-min Rain = 0
KSB1 151507Z 29010KT 28/05 A3009 RMK A01 T02820051  RH  023%=      5-min Rain = 0
KSB1 151508Z 28009G15KT 28/05 A3009 RMK A01 T02810051  RH  023%=      5-min Rain = 0
KSB1 151509Z 28011KT 28/05 A3009 RMK A01 T02810050  RH  023%=      5-min Rain = 0
KSB1 151510Z 28011KT 28/05 A3009 RMK A01 T02810050  RH  023%=      5-min Rain = 0
KSB1 151511Z 29011KT 28/05 A3009 RMK A01 T02810050  RH  023%=      5-min Rain = 0
KSB1 151512Z 29013KT 28/05 A3009 RMK A01 T02810052  RH  023%=      5-min Rain = 0
KSB1 151513Z 28011KT 28/05 A3009 RMK A01 T02810052  RH  023%=      5-min Rain = 0
KSB1 151514Z 28011KT 28/05 A3009 RMK A01 T02800052  RH  023%=      5-min Rain = 0
KSB1 151515Z 28009KT 28/05 A3009 RMK A01 T02800051  RH  023%=      5-min Rain = 0
KSB1 151516Z 27008KT 28/05 A3009 RMK A01 T02790052  RH  023%=      5-min Rain = 0
KSB1 151517Z 28007KT 28/06 A3009 RMK A01 T02810055  RH  024%=      5-min Rain = 0
KSB1 151518Z 27009KT 28/05 A3009 RMK A01 T02810054  RH  024%=      5-min Rain = 0
KSB1 151519Z 27012KT 28/06 A3009 RMK A01 T02820056  RH  024%=      5-min Rain = 0
KSB1 151520Z 27009KT 28/06 A3009 RMK A01 T02820056  RH  024%=      5-min Rain = 0
KSB1 151521Z 26007KT 28/05 A3009 RMK A01 T02810054  RH  024%=      5-min Rain = 0
KSB1 151522Z 28009KT 28/06 A3009 RMK A01 T02800055  RH  024%=      5-min Rain = 0
KSB1 151523Z 27010KT 28/05 A3009 RMK A01 T02830054  RH  023%=      5-min Rain = 0
KSB1 151524Z 25010KT 28/05 A3009 RMK A01 T02840051  RH  023%=      5-min Rain = 0
KSB1 151525Z 25010KT 28/05 A3009 RMK A01 T02840049  RH  022%=      5-min Rain = 0
KSB1 151526Z 25007KT 28/05 A3009 RMK A01 T02830050  RH  023%=      5-min Rain = 0
KSB1 151527Z 27009KT 28/05 A3009 RMK A01 T02830050  RH  023%=      5-min Rain = 0
KSB1 151528Z 26009KT 29/05 A3009 RMK A01 T02850051  RH  023%=      5-min Rain = 0
KSB1 151529Z 27009KT 29/05 A3009 RMK A01 T02870051  RH  022%=      5-min Rain = 0
KSB1 151530Z 27009KT 29/05 A3009 RMK A01 T02890049  RH  022%=      5-min Rain = 0
KSB1 151531Z 28011G16KT 29/04 A3009 RMK A01 T02890043  RH  021%=      5-min Rain = 0
KSB1 151532Z 30008KT 29/04 A3009 RMK A01 T02860035  RH  020%=      5-min Rain = 0
KSB1 151533Z 28011KT 29/04 A3009 RMK A01 T02850036  RH  020%=      5-min Rain = 0
KSB1 151534Z 28012KT 29/04 A3009 RMK A01 T02850037  RH  021%=      5-min Rain = 0
KSB1 151535Z 27013KT 29/04 A3009 RMK A01 T02850038  RH  021%=      5-min Rain = 0
KSB1 151536Z 28008KT 28/04 A3009 RMK A01 T02840039  RH  021%=      5-min Rain = 0
KSB1 151537Z 27011KT 28/04 A3009 RMK A01 T02840042  RH  021%=      5-min Rain = 0
KSB1 151538Z 27012KT 29/04 A3009 RMK A01 T02860044  RH  021%=      5-min Rain = 0
KSB1 151539Z 29011KT 29/05 A3009 RMK A01 T02890047  RH  021%=      5-min Rain = 0
KSB1 151540Z 29011KT 29/05 A3009 RMK A01 T02890045  RH  021%=      5-min Rain = 0
KSB1 151541Z 28008KT 29/04 A3009 RMK A01 T02870043  RH  021%=      5-min Rain = 0
KSB1 151542Z 29007KT 29/04 A3009 RMK A01 T02860042  RH  021%=      5-min Rain = 0
KSB1 151543Z 28012KT 29/04 A3009 RMK A01 T02870038  RH  020%=      5-min Rain = 0
KSB1 151544Z 28011KT 29/03 A3009 RMK A01 T02880032  RH  020%=      5-min Rain = 0
KSB1 151545Z 26010KT 29/03 A3009 RMK A01 T02890029  RH  019%=      5-min Rain = 0
KSB1 151546Z 24008KT 29/03 A3009 RMK A01 T02850028  RH  019%=      5-min Rain = 0
KSB1 151547Z 30007KT 28/03 A3009 RMK A01 T02820032  RH  020%=      5-min Rain = 0
KSB1 151548Z 31010KT 28/04 A3009 RMK A01 T02830039  RH  021%=      5-min Rain = 0
KSB1 151549Z 31010KT 29/04 A3009 RMK A01 T02850044  RH  021%=      5-min Rain = 0
KSB1 151550Z 30011KT 29/05 A3009 RMK A01 T02870045  RH  021%=      5-min Rain = 0
KSB1 151551Z 31012KT 29/04 A3009 RMK A01 T02870042  RH  021%=      5-min Rain = 0
KSB1 151552Z 29009KT 29/04 A3009 RMK A01 T02880042  RH  021%=      5-min Rain = 0
KSB1 151553Z 27012KT 29/04 A3009 RMK A01 T02890038  RH  020%=      5-min Rain = 0
KSB1 151554Z 26011KT 29/03 A3009 RMK A01 T02900034  RH  019%=      5-min Rain = 0
KSB1 151555Z 26010G15KT 29/03 A3009 RMK A01 T02890031  RH  019%=      5-min Rain = 0
KSB1 151556Z 25012KT 29/03 A3009 RMK A01 T02880030  RH  019%=      5-min Rain = 0
KSB1 151557Z 27013KT 29/03 A3009 RMK A01 T02890029  RH  019%=      5-min Rain = 0
KSB1 151558Z 30013G19KT 29/04 A3008 RMK A01 T02890041  RH  021%=      5-min Rain = 0
KSB1 151559Z 33011KT 29/05 A3008 RMK A01 T02920051  RH  022%=      5-min Rain = 0
KSB1 151600Z 32009KT 29/05 A3008 RMK A01 T02930047  RH  021%=      5-min Rain = 0
KSB1 151601Z 28011KT 29/04 A3009 RMK A01 T02920041  RH  020%=      5-min Rain = 0
KSB1 151602Z 29009KT 29/04 A3009 RMK A01 T02900035  RH  020%=      5-min Rain = 0
KSB1 151603Z 28008KT 29/03 A3009 RMK A01 T02910034  RH  019%=      5-min Rain = 0
KSB1 151604Z 28010KT 29/04 A3008 RMK A01 T02920037  RH  020%=      5-min Rain = 0
KSB1 151605Z 27011KT 29/03 A3008 RMK A01 T02930034  RH  019%=      5-min Rain = 0
KSB1 151606Z 26011KT 29/03 A3008 RMK A01 T02920034  RH  019%=      5-min Rain = 0
KSB1 151607Z 29007KT 29/04 A3008 RMK A01 T02900035  RH  020%=      5-min Rain = 0
KSB1 151608Z 27009KT 29/04 A3008 RMK A01 T02890035  RH  020%=      5-min Rain = 0
KSB1 151609Z 27012KT 29/03 A3008 RMK A01 T02910033  RH  019%=      5-min Rain = 0
KSB1 151610Z 27013KT 29/02 A3009 RMK A01 T02940022  RH  017%=      5-min Rain = 0
KSB1 151611Z 26010KT 29/02 A3008 RMK A01 T02920018  RH  017%=      5-min Rain = 0
KSB1 151612Z 26012KT 29/03 A3008 RMK A01 T02900025  RH  018%=      5-min Rain = 0
KSB1 151613Z 25012KT 29/03 A3008 RMK A01 T02900027  RH  019%=      5-min Rain = 0
KSB1 151614Z 27011KT 29/03 A3008 RMK A01 T02910031  RH  019%=      5-min Rain = 0
KSB1 151615Z 28014G19KT 29/02 A3008 RMK A01 T02930020  RH  017%=      5-min Rain = 0
KSB1 151616Z 27014KT 30/01 A3009 RMK A01 T02950007  RH  016%=      5-min Rain = 0
KSB1 151617Z 28013KT 29/01 A3009 RMK A01 T02920013  RH  017%=      5-min Rain = 0
KSB1 151618Z 28012KT 29/02 A3008 RMK A01 T02890019  RH  018%=      5-min Rain = 0
KSB1 151619Z 28011G16KT 29/02 A3008 RMK A01 T02880023  RH  018%=      5-min Rain = 0
KSB1 151620Z 27009G14KT 29/03 A3008 RMK A01 T02890029  RH  019%=      5-min Rain = 0
KSB1 151621Z 28014KT 29/02 A3008 RMK A01 T02900023  RH  018%=      5-min Rain = 0
KSB1 151622Z 27013KT 29/02 A3008 RMK A01 T02900019  RH  017%=      5-min Rain = 0
KSB1 151623Z 27011KT 29/02 A3008 RMK A01 T02900020  RH  018%=      5-min Rain = 0
KSB1 151624Z 27013KT 29/02 A3008 RMK A01 T02930023  RH  018%=      5-min Rain = 0
KSB1 151625Z 27011KT 29/03 A3008 RMK A01 T02930026  RH  018%=      5-min Rain = 0
KSB1 151626Z 27010KT 29/03 A3008 RMK A01 T02920027  RH  018%=      5-min Rain = 0
KSB1 151627Z 29010KT 29/03 A3008 RMK A01 T02930031  RH  019%=      5-min Rain = 0
KSB1 151628Z 31008KT 30/03 A3008 RMK A01 T02950029  RH  018%=      5-min Rain = 0
KSB1 151629Z 32007KT 30/03 A3008 RMK A01 T02960027  RH  018%=      5-min Rain = 0
KSB1 151630Z 29008KT 30/03 A3008 RMK A01 T02990028  RH  018%=      5-min Rain = 0
KSB1 151631Z 28010KT 30/03 A3008 RMK A01 T02980026  RH  017%=      5-min Rain = 0
KSB1 151632Z 27009KT 29/02 A3008 RMK A01 T02940019  RH  017%=      5-min Rain = 0
KSB1 151633Z 26011G24KT 29/02 A3008 RMK A01 T02920021  RH  018%=      5-min Rain = 0
KSB1 151634Z 28011KT 30/02 A3008 RMK A01 T02950021  RH  017%=      5-min Rain = 0
KSB1 151635Z 27009G14KT 30/02 A3008 RMK A01 T02970018  RH  017%=      5-min Rain = 0
KSB1 151636Z 26013KT 30/02 A3008 RMK A01 T02990020  RH  017%=      5-min Rain = 0
KSB1 151637Z 30013G18KT 30/02 A3008 RMK A01 T03000024  RH  017%=      5-min Rain = 0
KSB1 151638Z 30014KT 30/03 A3008 RMK A01 T03000025  RH  017%=      5-min Rain = 0
KSB1 151639Z 29013KT 30/03 A3008 RMK A01 T02980029  RH  018%=      5-min Rain = 0
KSB1 151640Z 29013KT 30/03 A3008 RMK A01 T02950030  RH  018%=      5-min Rain = 0
KSB1 151641Z 29013KT 29/03 A3008 RMK A01 T02930031  RH  019%=      5-min Rain = 0
KSB1 151642Z 28012KT 30/03 A3008 RMK A01 T02950030  RH  018%=      5-min Rain = 0
KSB1 151643Z 28015KT 30/02 A3008 RMK A01 T02980024  RH  017%=      5-min Rain = 0
KSB1 151644Z 28015KT 30/03 A3008 RMK A01 T02980025  RH  017%=      5-min Rain = 0
KSB1 151645Z 27010KT 30/03 A3008 RMK A01 T02960026  RH  018%=      5-min Rain = 0
KSB1 151646Z 26011G16KT 29/03 A3008 RMK A01 T02930027  RH  018%=      5-min Rain = 0
KSB1 151647Z 26009KT 29/03 A3008 RMK A01 T02940026  RH  018%=      5-min Rain = 0
KSB1 151648Z 29012KT 30/03 A3008 RMK A01 T02960028  RH  018%=      5-min Rain = 0
KSB1 151649Z 28010KT 30/03 A3008 RMK A01 T02960029  RH  018%=      5-min Rain = 0
KSB1 151650Z 28012G19KT 30/03 A3008 RMK A01 T02960032  RH  019%=      5-min Rain = 0
KSB1 151651Z 29017G23KT 30/03 A3008 RMK A01 T02970028  RH  018%=      5-min Rain = 0
KSB1 151652Z 28014KT 30/03 A3008 RMK A01 T02980025  RH  017%=      5-min Rain = 0
KSB1 151653Z 29014KT 30/03 A3008 RMK A01 T02980029  RH  018%=      5-min Rain = 0
KSB1 151654Z 29017KT 30/03 A3008 RMK A01 T02980029  RH  018%=      5-min Rain = 0
KSB1 151655Z 28016KT 30/03 A3008 RMK A01 T02950029  RH  018%=      5-min Rain = 0
KSB1 151656Z 28012KT 29/03 A3008 RMK A01 T02930028  RH  018%=      5-min Rain = 0
KSB1 151657Z 27014KT 29/03 A3008 RMK A01 T02940031  RH  019%=      5-min Rain = 0
KSB1 151658Z 27015KT 30/03 A3009 RMK A01 T02960029  RH  018%=      5-min Rain = 0
KSB1 151659Z 27010G16KT 30/03 A3008 RMK A01 T02960027  RH  018%=      5-min Rain = 0
KSB1 151700Z 26011KT 29/03 A3008 RMK A01 T02930026  RH  018%=      5-min Rain = 0
KSB1 151701Z 26014KT 30/03 A3008 RMK A01 T02950027  RH  018%=      5-min Rain = 0
KSB1 151702Z 26010KT 30/03 A3008 RMK A01 T02950027  RH  018%=      5-min Rain = 0
KSB1 151703Z 28010KT 30/03 A3008 RMK A01 T02950029  RH  018%=      5-min Rain = 0
KSB1 151704Z 29014KT 30/03 A3008 RMK A01 T02990028  RH  018%=      5-min Rain = 0
KSB1 151705Z 29012G17KT 30/03 A3008 RMK A01 T03010026  RH  017%=      5-min Rain = 0
KSB1 151706Z 27012G17KT 30/03 A3008 RMK A01 T03010025  RH  017%=      5-min Rain = 0
KSB1 151707Z 27014KT 30/03 A3008 RMK A01 T03010028  RH  018%=      5-min Rain = 0
KSB1 151708Z 27007KT 30/03 A3008 RMK A01 T02990030  RH  018%=      5-min Rain = 0
KSB1 151709Z 28010KT 30/03 A3008 RMK A01 T02990030  RH  018%=      5-min Rain = 0
KSB1 151710Z 28012KT 30/02 A3008 RMK A01 T03010024  RH  017%=      5-min Rain = 0
KSB1 151711Z 27011KT 30/02 A3008 RMK A01 T03010023  RH  017%=      5-min Rain = 0
KSB1 151712Z 28013KT 30/03 A3008 RMK A01 T03010025  RH  017%=      5-min Rain = 0
KSB1 151713Z 26015KT 30/02 A3008 RMK A01 T03020023  RH  017%=      5-min Rain = 0
KSB1 151714Z 25011KT 30/02 A3008 RMK A01 T03020018  RH  016%=      5-min Rain = 0
KSB1 151715Z 27013KT 30/02 A3008 RMK A01 T03010021  RH  017%=      5-min Rain = 0
KSB1 151716Z 26008KT 30/02 A3008 RMK A01 T02990020  RH  017%=      5-min Rain = 0
KSB1 151717Z 24006KT 30/02 A3008 RMK A01 T02970021  RH  017%=      5-min Rain = 0
KSB1 151718Z 25009G14KT 30/03 A3008 RMK A01 T02960025  RH  018%=      5-min Rain = 0
KSB1 151719Z 28016KT 30/02 A3008 RMK A01 T02980023  RH  017%=      5-min Rain = 0
KSB1 151720Z 29011KT 30/02 A3008 RMK A01 T03010018  RH  016%=      5-min Rain = 0
KSB1 151721Z 28015G21KT 30/02 A3008 RMK A01 T03010019  RH  016%=      5-min Rain = 0
KSB1 151722Z 28016KT 30/02 A3008 RMK A01 T03020016  RH  016%=      5-min Rain = 0
KSB1 151723Z 29014KT 30/02 A3008 RMK A01 T03000018  RH  016%=      5-min Rain = 0
KSB1 151724Z 29011KT 30/02 A3008 RMK A01 T03000019  RH  017%=      5-min Rain = 0
KSB1 151725Z 30013KT 30/02 A3008 RMK A01 T03010022  RH  017%=      5-min Rain = 0
KSB1 151726Z 32011G16KT 30/02 A3007 RMK A01 T03020021  RH  017%=      5-min Rain = 0
KSB1 151727Z 32011KT 30/02 A3007 RMK A01 T02990022  RH  017%=      5-min Rain = 0
KSB1 151728Z 32011KT 30/02 A3007 RMK A01 T03010024  RH  017%=      5-min Rain = 0
KSB1 151729Z 29015KT 30/02 A3008 RMK A01 T03030023  RH  017%=      5-min Rain = 0
KSB1 151730Z 27012KT 30/03 A3008 RMK A01 T03040026  RH  017%=      5-min Rain = 0
KSB1 151731Z 24011G17KT 31/03 A3008 RMK A01 T03060026  RH  017%=      5-min Rain = 0
KSB1 151732Z 27008KT 30/02 A3008 RMK A01 T03000022  RH  017%=      5-min Rain = 0
KSB1 151733Z 26011KT 30/02 A3008 RMK A01 T02990023  RH  017%=      5-min Rain = 0
KSB1 151734Z 27007KT 30/02 A3008 RMK A01 T03000021  RH  017%=      5-min Rain = 0
KSB1 151735Z 25008KT 30/02 A3007 RMK A01 T03040023  RH  017%=      5-min Rain = 0
KSB1 151736Z 23011KT 30/03 A3007 RMK A01 T03040025  RH  017%=      5-min Rain = 0
KSB1 151737Z 25013KT 30/03 A3007 RMK A01 T03030028  RH  017%=      5-min Rain = 0
KSB1 151738Z 25014G19KT 30/03 A3007 RMK A01 T03040025  RH  017%=      5-min Rain = 0
KSB1 151739Z 25016KT 30/02 A3007 RMK A01 T03040022  RH  016%=      5-min Rain = 0
KSB1 151740Z 26015KT 31/02 A3007 RMK A01 T03050024  RH  017%=      5-min Rain = 0
KSB1 151741Z 25011KT 31/02 A3007 RMK A01 T03050023  RH  017%=      5-min Rain = 0
KSB1 151742Z 26013KT 30/03 A3007 RMK A01 T03040025  RH  017%=      5-min Rain = 0
KSB1 151743Z 27012KT 31/02 A3007 RMK A01 T03060024  RH  017%=      5-min Rain = 0
KSB1 151744Z 28010KT 30/03 A3007 RMK A01 T03040025  RH  017%=      5-min Rain = 0
KSB1 151745Z 27007KT 30/03 A3007 RMK A01 T03030025  RH  017%=      5-min Rain = 0
KSB1 151746Z 22008KT 30/03 A3007 RMK A01 T03020026  RH  017%=      5-min Rain = 0
KSB1 151747Z 22006KT 30/03 A3007 RMK A01 T03020026  RH  017%=      5-min Rain = 0
KSB1 151748Z 26011KT 30/03 A3007 RMK A01 T03030027  RH  017%=      5-min Rain = 0
KSB1 151749Z 30010KT 31/03 A3007 RMK A01 T03060026  RH  017%=      5-min Rain = 0
KSB1 151750Z 27010KT 31/03 A3007 RMK A01 T03050025  RH  017%=      5-min Rain = 0
KSB1 151751Z 29013G32KT 31/03 A3006 RMK A01 T03070028  RH  017%=      5-min Rain = 0
KSB1 151752Z 24017G28KT 31/03 A3006 RMK A01 T03120030  RH  017%=      5-min Rain = 0
KSB1 151753Z 25013KT 32/03 A3007 RMK A01 T03170032  RH  016%=      5-min Rain = 0
KSB1 151754Z 26012KT 32/03 A3007 RMK A01 T03170030  RH  016%=      5-min Rain = 0
KSB1 151755Z 24012KT 31/03 A3007 RMK A01 T03140029  RH  016%=      5-min Rain = 0
KSB1 151756Z 23010KT 31/03 A3007 RMK A01 T03080026  RH  017%=      5-min Rain = 0
KSB1 151757Z 24008KT 30/03 A3007 RMK A01 T03040027  RH  017%=      5-min Rain = 0
KSB1 151758Z 22009KT 31/03 A3007 RMK A01 T03050028  RH  017%=      5-min Rain = 0
KSB1 151759Z 23009KT 30/03 A3007 RMK A01 T03020027  RH  017%=      5-min Rain = 0
KSB1 151800Z 24007KT 30/03 A3007 RMK A01 T03020028  RH  017%=      5-min Rain = 0
KSB1 151801Z 25009KT 30/03 A3007 RMK A01 T03020028  RH  017%=      5-min Rain = 0
KSB1 151802Z 23007KT 31/03 A3007 RMK A01 T03050028  RH  017%=      5-min Rain = 0
KSB1 151803Z 27007KT 31/03 A3007 RMK A01 T03060027  RH  017%=      5-min Rain = 0
KSB1 151804Z 27005KT 31/02 A3006 RMK A01 T03060024  RH  016%=      5-min Rain = 0
KSB1 151805Z 26013KT 31/03 A3007 RMK A01 T03060025  RH  017%=      5-min Rain = 0
KSB1 151806Z 23010KT 31/02 A3006 RMK A01 T03060023  RH  016%=      5-min Rain = 0
KSB1 151807Z 21009KT 30/02 A3006 RMK A01 T03040024  RH  017%=      5-min Rain = 0
KSB1 151808Z 24006KT 31/03 A3006 RMK A01 T03050025  RH  017%=      5-min Rain = 0
KSB1 151809Z 25011KT 31/03 A3006 RMK A01 T03080026  RH  017%=      5-min Rain = 0
KSB1 151810Z 27016KT 31/03 A3006 RMK A01 T03100027  RH  016%=      5-min Rain = 0
KSB1 151811Z 27012KT 31/02 A3006 RMK A01 T03100024  RH  016%=      5-min Rain = 0
KSB1 151812Z 27017G24KT 31/03 A3006 RMK A01 T03100025  RH  016%=      5-min Rain = 0
KSB1 151813Z 29016G21KT 31/02 A3006 RMK A01 T03100024  RH  016%=      5-min Rain = 0
KSB1 151814Z 28012KT 31/02 A3006 RMK A01 T03090023  RH  016%=      5-min Rain = 0
KSB1 151815Z 28012KT 31/02 A3006 RMK A01 T03070022  RH  016%=      5-min Rain = 0
KSB1 151816Z 29011KT 31/02 A3006 RMK A01 T03070021  RH  016%=      5-min Rain = 0
KSB1 151817Z 27008KT 31/02 A3006 RMK A01 T03070022  RH  016%=      5-min Rain = 0
KSB1 151818Z 28007KT 31/02 A3006 RMK A01 T03080021  RH  016%=      5-min Rain = 0
KSB1 151819Z 32006KT 31/02 A3006 RMK A01 T03060021  RH  016%=      5-min Rain = 0
KSB1 151820Z 29013KT 31/02 A3006 RMK A01 T03060022  RH  016%=      5-min Rain = 0
KSB1 151821Z 30010KT 31/02 A3006 RMK A01 T03080019  RH  016%=      5-min Rain = 0
KSB1 151822Z 32009KT 31/02 A3006 RMK A01 T03050020  RH  016%=      5-min Rain = 0
KSB1 151823Z 33008KT 31/02 A3006 RMK A01 T03070022  RH  016%=      5-min Rain = 0
KSB1 151824Z 27010KT 31/03 A3006 RMK A01 T03130025  RH  016%=      5-min Rain = 0
KSB1 151825Z 32011KT 32/02 A3006 RMK A01 T03170024  RH  016%=      5-min Rain = 0
KSB1 151826Z 32012KT 32/02 A3006 RMK A01 T03160023  RH  016%=      5-min Rain = 0
KSB1 151827Z 31014KT 32/02 A3006 RMK A01 T03160022  RH  015%=      5-min Rain = 0
KSB1 151828Z 31013KT 32/02 A3006 RMK A01 T03150022  RH  015%=      5-min Rain = 0
KSB1 151829Z 32009KT 31/02 A3006 RMK A01 T03120020  RH  016%=      5-min Rain = 0
KSB1 151830Z 31010KT 31/02 A3006 RMK A01 T03090022  RH  016%=      5-min Rain = 0
KSB1 151831Z 31009KT 31/02 A3005 RMK A01 T03100021  RH  016%=      5-min Rain = 0
KSB1 151832Z 33007KT 31/02 A3005 RMK A01 T03100022  RH  016%=      5-min Rain = 0
KSB1 151833Z 34007KT 31/02 A3005 RMK A01 T03100021  RH  016%=      5-min Rain = 0
KSB1 151834Z 32006KT 31/02 A3005 RMK A01 T03100022  RH  016%=      5-min Rain = 0
KSB1 151835Z 32008KT 31/02 A3005 RMK A01 T03110022  RH  016%=      5-min Rain = 0
KSB1 151836Z 29010G16KT 31/02 A3006 RMK A01 T03130022  RH  016%=      5-min Rain = 0
KSB1 151837Z 29019KT 31/02 A3005 RMK A01 T03140021  RH  016%=      5-min Rain = 0
KSB1 151838Z 29017G22KT 31/02 A3005 RMK A01 T03140019  RH  015%=      5-min Rain = 0
KSB1 151839Z 28018KT 31/02 A3005 RMK A01 T03120018  RH  015%=      5-min Rain = 0
KSB1 151840Z 27017KT 31/02 A3005 RMK A01 T03130020  RH  015%=      5-min Rain = 0
KSB1 151841Z 28016KT 31/02 A3005 RMK A01 T03130018  RH  015%=      5-min Rain = 0
KSB1 151842Z 29013KT 31/02 A3005 RMK A01 T03100017  RH  015%=      5-min Rain = 0
KSB1 151843Z 29017KT 31/02 A3005 RMK A01 T03080018  RH  016%=      5-min Rain = 0
KSB1 151844Z 29013KT 31/02 A3005 RMK A01 T03080017  RH  016%=      5-min Rain = 0
KSB1 151845Z 29010KT 31/02 A3006 RMK A01 T03070016  RH  015%=      5-min Rain = 0
KSB1 151846Z 28012KT 31/02 A3006 RMK A01 T03060017  RH  016%=      5-min Rain = 0
KSB1 151847Z 27008KT 31/02 A3005 RMK A01 T03070017  RH  016%=      5-min Rain = 0
KSB1 151848Z 27006KT 31/02 A3005 RMK A01 T03070017  RH  016%=      5-min Rain = 0
KSB1 151849Z 28006KT 31/02 A3005 RMK A01 T03050018  RH  016%=      5-min Rain = 0
KSB1 151850Z 28005KT 31/02 A3005 RMK A01 T03060016  RH  016%=      5-min Rain = 0
KSB1 151851Z 24008KT 31/02 A3005 RMK A01 T03060018  RH  016%=      5-min Rain = 0
KSB1 151852Z 27004KT 31/02 A3005 RMK A01 T03050015  RH  016%=      5-min Rain = 0
KSB1 151853Z 25004KT 30/02 A3005 RMK A01 T03040016  RH  016%=      5-min Rain = 0
KSB1 151854Z 24005G10KT 30/02 A3005 RMK A01 T03040015  RH  016%=      5-min Rain = 0
KSB1 151855Z 26007KT 31/02 A3005 RMK A01 T03050017  RH  016%=      5-min Rain = 0
KSB1 151856Z 26010KT 31/02 A3005 RMK A01 T03070019  RH  016%=      5-min Rain = 0
KSB1 151857Z 27008KT 31/02 A3005 RMK A01 T03110019  RH  016%=      5-min Rain = 0
KSB1 151858Z 27007G13KT 31/02 A3005 RMK A01 T03110019  RH  016%=      5-min Rain = 0
KSB1 151859Z 27011G16KT 31/02 A3005 RMK A01 T03100018  RH  015%=      5-min Rain = 0
KSB1 151900Z 27009KT 31/02 A3005 RMK A01 T03090017  RH  015%=      5-min Rain = 0
KSB1 151901Z 23007KT 31/02 A3004 RMK A01 T03060015  RH  016%=      5-min Rain = 0
KSB1 151902Z 24007G12KT 30/02 A3004 RMK A01 T03040017  RH  016%=      5-min Rain = 0
KSB1 151903Z 24009KT 31/02 A3004 RMK A01 T03060017  RH  016%=      5-min Rain = 0
KSB1 151904Z 27016G21KT 31/02 A3004 RMK A01 T03100018  RH  015%=      5-min Rain = 0
KSB1 151905Z 26017KT 31/01 A3005 RMK A01 T03130014  RH  015%=      5-min Rain = 0
KSB1 151906Z 27010KT 31/01 A3004 RMK A01 T03130014  RH  015%=      5-min Rain = 0
KSB1 151907Z 27009KT 31/01 A3004 RMK A01 T03130013  RH  015%=      5-min Rain = 0
KSB1 151908Z 29012KT 31/02 A3004 RMK A01 T03120015  RH  015%=      5-min Rain = 0
KSB1 151909Z 27010KT 31/02 A3004 RMK A01 T03140016  RH  015%=      5-min Rain = 0
KSB1 151910Z 29008KT 32/02 A3004 RMK A01 T03170015  RH  015%=      5-min Rain = 0
KSB1 151911Z 29008KT 32/02 A3004 RMK A01 T03160015  RH  015%=      5-min Rain = 0
KSB1 151912Z 24007KT 32/02 A3004 RMK A01 T03160016  RH  015%=      5-min Rain = 0
KSB1 151913Z 27006KT 32/01 A3004 RMK A01 T03150014  RH  015%=      5-min Rain = 0
KSB1 151914Z 24010KT 31/01 A3004 RMK A01 T03140014  RH  015%=      5-min Rain = 0
KSB1 151915Z 24014G19KT 32/02 A3004 RMK A01 T03170016  RH  015%=      5-min Rain = 0
KSB1 151916Z 24015KT 32/01 A3004 RMK A01 T03200013  RH  014%=      5-min Rain = 0
KSB1 151917Z 22013KT 32/01 A3004 RMK A01 T03180013  RH  014%=      5-min Rain = 0
KSB1 151918Z 21012KT 32/02 A3004 RMK A01 T03190015  RH  014%=      5-min Rain = 0
KSB1 151919Z 22007KT 32/01 A3004 RMK A01 T03170011  RH  014%=      5-min Rain = 0
KSB1 151920Z 21007KT 31/01 A3003 RMK A01 T03140013  RH  015%=      5-min Rain = 0
KSB1 151921Z 23009KT 32/02 A3003 RMK A01 T03170015  RH  015%=      5-min Rain = 0
KSB1 151922Z 28011G17KT 32/01 A3003 RMK A01 T03190014  RH  014%=      5-min Rain = 0
KSB1 151923Z 29014KT 32/01 A3003 RMK A01 T03210014  RH  014%=      5-min Rain = 0
KSB1 151924Z 29015G20KT 32/01 A3003 RMK A01 T03210012  RH  014%=      5-min Rain = 0
KSB1 151925Z 28017KT 32/01 A3003 RMK A01 T03180012  RH  014%=      5-min Rain = 0
KSB1 151926Z 27017KT 32/01 A3004 RMK A01 T03200012  RH  014%=      5-min Rain = 0
KSB1 151927Z 28011KT 32/01 A3004 RMK A01 T03170010  RH  014%=      5-min Rain = 0
KSB1 151928Z 26009KT 31/01 A3004 RMK A01 T03130009  RH  014%=      5-min Rain = 0
KSB1 151929Z 27006KT 31/01 A3003 RMK A01 T03110008  RH  014%=      5-min Rain = 0
KSB1 151930Z 28006KT 31/01 A3003 RMK A01 T03080009  RH  015%=      5-min Rain = 0
KSB1 151931Z 27010KT 31/01 A3003 RMK A01 T03090012  RH  015%=      5-min Rain = 0
KSB1 151932Z 28011KT 31/01 A3003 RMK A01 T03140012  RH  014%=      5-min Rain = 0
KSB1 151933Z 27009KT 32/01 A3003 RMK A01 T03150010  RH  014%=      5-min Rain = 0
KSB1 151934Z 26007KT 31/01 A3003 RMK A01 T03140012  RH  014%=      5-min Rain = 0
KSB1 151935Z 24008KT 32/01 A3003 RMK A01 T03150013  RH  015%=      5-min Rain = 0
KSB1 151936Z 22008KT 32/01 A3003 RMK A01 T03170013  RH  014%=      5-min Rain = 0
KSB1 151937Z 21005KT 32/01 A3003 RMK A01 T03160011  RH  014%=      5-min Rain = 0
KSB1 151938Z 20004KT 31/01 A3003 RMK A01 T03140011  RH  014%=      5-min Rain = 0
KSB1 151939Z 20004KT 31/01 A3003 RMK A01 T03140011  RH  014%=      5-min Rain = 0
KSB1 151940Z 22005KT 32/01 A3003 RMK A01 T03150014  RH  015%=      5-min Rain = 0
KSB1 151941Z 25005KT 32/01 A3003 RMK A01 T03150013  RH  015%=      5-min Rain = 0
KSB1 151942Z 21007KT 31/01 A3003 RMK A01 T03140013  RH  015%=      5-min Rain = 0
KSB1 151943Z 20009KT 32/01 A3003 RMK A01 T03150013  RH  015%=      5-min Rain = 0
KSB1 151944Z 24016G21KT 32/02 A3002 RMK A01 T03150017  RH  015%=      5-min Rain = 0
KSB1 151945Z 25015G20KT 32/02 A3003 RMK A01 T03210016  RH  014%=      5-min Rain = 0
KSB1 151946Z 25011KT 32/02 A3003 RMK A01 T03200015  RH  014%=      5-min Rain = 0
KSB1 151947Z 24008G14KT 32/02 A3003 RMK A01 T03210018  RH  015%=      5-min Rain = 0
KSB1 151948Z 23012KT 33/02 A3003 RMK A01 T03250019  RH  014%=      5-min Rain = 0
KSB1 151949Z 23012G17KT 32/02 A3003 RMK A01 T03240019  RH  014%=      5-min Rain = 0
KSB1 151950Z 23012KT 32/02 A3003 RMK A01 T03220015  RH  014%=      5-min Rain = 0
KSB1 151951Z 22008KT 32/01 A3003 RMK A01 T03160014  RH  015%=      5-min Rain = 0
KSB1 151952Z 21009KT 31/02 A3002 RMK A01 T03140015  RH  015%=      5-min Rain = 0
KSB1 151953Z 21006KT 31/01 A3002 RMK A01 T03120014  RH  015%=      5-min Rain = 0
KSB1 151954Z 24007KT 31/02 A3002 RMK A01 T03140017  RH  015%=      5-min Rain = 0
KSB1 151955Z 23010KT 32/02 A3002 RMK A01 T03170017  RH  015%=      5-min Rain = 0
KSB1 151956Z 22010KT 32/02 A3002 RMK A01 T03190018  RH  015%=      5-min Rain = 0
KSB1 151957Z 21009KT 32/02 A3002 RMK A01 T03240018  RH  014%=      5-min Rain = 0
KSB1 151958Z 20010KT 33/02 A3002 RMK A01 T03280018  RH  014%=      5-min Rain = 0
KSB1 151959Z 31010G15KT 33/02 A3001 RMK A01 T03330022  RH  014%=      5-min Rain = 0
KSB1 152000Z 28010G17KT 34/02 A3002 RMK A01 T03360019  RH  013%=      5-min Rain = 0
KSB1 152001Z 27009G15KT 33/02 A3002 RMK A01 T03310015  RH  013%=      5-min Rain = 0
KSB1 152002Z 28009G14KT 33/02 A3002 RMK A01 T03250016  RH  014%=      5-min Rain = 0
KSB1 152003Z 26020G25KT 33/02 A3002 RMK A01 T03260017  RH  014%=      5-min Rain = 0
KSB1 152004Z 24020G25KT 32/01 A3002 RMK A01 T03230014  RH  014%=      5-min Rain = 0
KSB1 152005Z 23013G19KT 32/02 A3002 RMK A01 T03220015  RH  014%=      5-min Rain = 0
KSB1 152006Z 26009KT 32/02 A3002 RMK A01 T03210016  RH  014%=      5-min Rain = 0
KSB1 152007Z 28011KT 32/02 A3002 RMK A01 T03240016  RH  014%=      5-min Rain = 0
KSB1 152008Z 28014KT 33/02 A3002 RMK A01 T03280018  RH  014%=      5-min Rain = 0
KSB1 152009Z 27017KT 33/02 A3002 RMK A01 T03310017  RH  014%=      5-min Rain = 0
KSB1 152010Z 27014G20KT 33/01 A3002 RMK A01 T03290014  RH  014%=      5-min Rain = 0
KSB1 152011Z 24018G25KT 33/01 A3002 RMK A01 T03250014  RH  014%=      5-min Rain = 0
KSB1 152012Z 24018G23KT 33/02 A3002 RMK A01 T03260015  RH  014%=      5-min Rain = 0
KSB1 152013Z 26015G20KT 32/01 A3002 RMK A01 T03240014  RH  014%=      5-min Rain = 0
KSB1 152014Z 27009KT 32/01 A3002 RMK A01 T03220013  RH  014%=      5-min Rain = 0
KSB1 152015Z 25006KT 32/01 A3002 RMK A01 T03200014  RH  014%=      5-min Rain = 0
KSB1 152016Z 25005KT 32/01 A3002 RMK A01 T03190013  RH  014%=      5-min Rain = 0
KSB1 152017Z 27007KT 32/01 A3002 RMK A01 T03180014  RH  014%=      5-min Rain = 0
KSB1 152018Z 30004KT 32/01 A3002 RMK A01 T03150013  RH  014%=      5-min Rain = 0
KSB1 152019Z 32005KT 32/01 A3002 RMK A01 T03160014  RH  015%=      5-min Rain = 0
KSB1 152020Z 35005KT 32/01 A3001 RMK A01 T03190012  RH  014%=      5-min Rain = 0
KSB1 152021Z 35008KT 32/01 A3001 RMK A01 T03200014  RH  014%=      5-min Rain = 0
KSB1 152022Z 00008KT 32/01 A3001 RMK A01 T03210014  RH  014%=      5-min Rain = 0
KSB1 152023Z 35008KT 32/02 A3001 RMK A01 T03210015  RH  014%=      5-min Rain = 0
KSB1 152024Z 00007KT 32/02 A3001 RMK A01 T03210015  RH  014%=      5-min Rain = 0
KSB1 152025Z 34008KT 32/01 A3001 RMK A01 T03220014  RH  014%=      5-min Rain = 0
KSB1 152026Z 35007KT 33/02 A3001 RMK A01 T03260018  RH  014%=      5-min Rain = 0
KSB1 152027Z 36008KT 33/02 A3001 RMK A01 T03300016  RH  014%=      5-min Rain = 0
KSB1 152028Z 35006KT 33/02 A3001 RMK A01 T03290015  RH  014%=      5-min Rain = 0
KSB1 152029Z 24006G12KT 33/02 A3001 RMK A01 T03280015  RH  014%=      5-min Rain = 0
KSB1 152030Z 24011KT 33/01 A3001 RMK A01 T03270012  RH  013%=      5-min Rain = 0
KSB1 152031Z 24017G22KT 33/01 A3001 RMK A01 T03250010  RH  013%=      5-min Rain = 0
KSB1 152032Z 23010KT 32/01 A3001 RMK A01 T03230007  RH  013%=      5-min Rain = 0
KSB1 152033Z 24011KT 32/01 A3001 RMK A01 T03230010  RH  014%=      5-min Rain = 0
KSB1 152034Z 25011KT 32/01 A3001 RMK A01 T03240008  RH  013%=      5-min Rain = 0
KSB1 152035Z 23009KT 32/01 A3001 RMK A01 T03210008  RH  014%=      5-min Rain = 0
KSB1 152036Z 22009KT 32/01 A30 RMK A01 T03210009  RH  014%=      5-min Rain = 0
KSB1 152037Z 25007KT 32/01 A30 RMK A01 T03220009  RH  014%=      5-min Rain = 0
KSB1 152038Z 24010KT 32/01 A30 RMK A01 T03240012  RH  014%=      5-min Rain = 0
KSB1 152039Z 26012G19KT 33/02 A30 RMK A01 T03310015  RH  014%=      5-min Rain = 0
KSB1 152040Z 28015KT 33/01 A30 RMK A01 T03340013  RH  013%=      5-min Rain = 0
KSB1 152041Z 27012KT 33/01 A30 RMK A01 T03340013  RH  013%=      5-min Rain = 0
KSB1 152042Z 27015KT 33/01 A30 RMK A01 T03340012  RH  013%=      5-min Rain = 0
KSB1 152043Z 28011G18KT 33/01 A30 RMK A01 T03330014  RH  013%=      5-min Rain = 0
KSB1 152044Z 27016G21KT 34/01 A30 RMK A01 T03360012  RH  013%=      5-min Rain = 0
KSB1 152045Z 26013KT 33/01 A30 RMK A01 T03340012  RH  013%=      5-min Rain = 0
KSB1 152046Z 28012KT 33/01 A30 RMK A01 T03320010  RH  013%=      5-min Rain = 0
KSB1 152047Z 26008KT 33/01 A30 RMK A01 T03290009  RH  013%=      5-min Rain = 0
KSB1 152048Z 27009KT 33/01 A30 RMK A01 T03270008  RH  013%=      5-min Rain = 0
KSB1 152049Z 28006KT 33/01 A30 RMK A01 T03260008  RH  013%=      5-min Rain = 0
KSB1 152050Z 00003KT 32/01 A30 RMK A01 T03230007  RH  013%=      5-min Rain = 0
KSB1 152051Z 31006KT 32/01 A30 RMK A01 T03220008  RH  013%=      5-min Rain = 0
KSB1 152052Z 30004KT 32/01 A30 RMK A01 T03210008  RH  014%=      5-min Rain = 0
KSB1 152053Z 29005KT 32/01 A30 RMK A01 T03230010  RH  014%=      5-min Rain = 0
KSB1 152054Z 25010G19KT 32/01 A30 RMK A01 T03240010  RH  013%=      5-min Rain = 0
KSB1 152055Z 31013G20KT 33/01 A30 RMK A01 T03280012  RH  013%=      5-min Rain = 0
KSB1 152056Z 28015KT 33/01 A30 RMK A01 T03320006  RH  013%=      5-min Rain = 0
KSB1 152057Z 28011KT 33/00 A30 RMK A01 T03270004  RH  013%=      5-min Rain = 0
KSB1 152058Z 28015KT 33/01 A30 RMK A01 T03250006  RH  013%=      5-min Rain = 0
KSB1 152059Z 26013KT 33/01 A30 RMK A01 T03270007  RH  013%=      5-min Rain = 0
KSB1 152100Z 27010KT 33/01 A30 RMK A01 T03260005  RH  013%=      5-min Rain = 0
KSB1 152101Z 28011KT 33/01 A30 RMK A01 T03270006  RH  013%=      5-min Rain = 0
KSB1 152102Z 29010KT 33/01 A30 RMK A01 T03270007  RH  013%=      5-min Rain = 0
KSB1 152103Z 30010KT 33/01 A30 RMK A01 T03260007  RH  013%=      5-min Rain = 0
KSB1 152104Z 28012KT 33/01 A30 RMK A01 T03270009  RH  013%=      5-min Rain = 0
KSB1 152105Z 24013KT 33/01 A30 RMK A01 T03290010  RH  013%=      5-min Rain = 0
KSB1 152106Z 23013KT 33/01 A30 RMK A01 T03310009  RH  013%=      5-min Rain = 0
KSB1 152107Z 24009KT 33/01 A30 RMK A01 T03280005  RH  013%=      5-min Rain = 0
KSB1 152108Z 25010KT 33/01 A30 RMK A01 T03270009  RH  013%=      5-min Rain = 0
KSB1 152109Z 25011KT 33/01 A30 RMK A01 T03340014  RH  013%=      5-min Rain = 0
KSB1 152110Z 25012KT 34/01 A30 RMK A01 T03370010  RH  013%=      5-min Rain = 0
KSB1 152111Z 26010KT 33/01 A30 RMK A01 T03340008  RH  013%=      5-min Rain = 0
KSB1 152112Z 27013KT 33/01 A30 RMK A01 T03330007  RH  013%=      5-min Rain = 0
KSB1 152113Z 28010KT 33/00 A30 RMK A01 T03310004  RH  012%=      5-min Rain = 0
KSB1 152114Z 27012KT 33/01 A30 RMK A01 T03310006  RH  013%=      5-min Rain = 0
KSB1 152115Z 26014KT 33/00 A30 RMK A01 T03290003  RH  013%=      5-min Rain = 0
KSB1 152116Z 26014KT 33/01 A30 RMK A01 T03250005  RH  013%=      5-min Rain = 0
KSB1 152117Z 25011KT 33/00 A30 RMK A01 T03250000  RH  013%=      5-min Rain = 0
KSB1 152118Z 28010KT 32/00 A30 RMK A01 T03200000  RH  013%=      5-min Rain = 0
KSB1 152119Z 30007KT 32/00 A30 RMK A01 T03190002  RH  013%=      5-min Rain = 0
KSB1 152120Z 30008KT 32/00 A30 RMK A01 T03190002  RH  013%=      5-min Rain = 0
KSB1 152121Z 31008KT 32/01 A30 RMK A01 T03240006  RH  013%=      5-min Rain = 0
KSB1 152122Z 32008KT 33/01 A2999 RMK A01 T03270005  RH  013%=      5-min Rain = 0
KSB1 152123Z 31006KT 33/00 A30 RMK A01 T03260003  RH  013%=      5-min Rain = 0
KSB1 152124Z 27008KT 33/00 A2999 RMK A01 T03250004  RH  013%=      5-min Rain = 0
KSB1 152125Z 26008KT 33/00 A2999 RMK A01 T03270002  RH  013%=      5-min Rain = 0
KSB1 152126Z 27005KT 33/M00 A2999 RMK A01 T03271001  RH  012%=      5-min Rain = 0
KSB1 152127Z 31007G13KT 32/00 A2999 RMK A01 T03240000  RH  013%=      5-min Rain = 0
KSB1 152128Z 30011G16KT 33/00 A2999 RMK A01 T03250003  RH  013%=      5-min Rain = 0
KSB1 152129Z 30006KT 33/00 A2999 RMK A01 T03280003  RH  013%=      5-min Rain = 0
KSB1 152130Z 31005KT 33/00 A2999 RMK A01 T03280002  RH  012%=      5-min Rain = 0
KSB1 152131Z 30013KT 33/00 A2999 RMK A01 T03260002  RH  013%=      5-min Rain = 0
KSB1 152132Z 30011G17KT 33/00 A2999 RMK A01 T03270003  RH  013%=      5-min Rain = 0
KSB1 152133Z 27015G23KT 33/00 A2999 RMK A01 T03300004  RH  013%=      5-min Rain = 0
KSB1 152134Z 26020KT 34/00 A2999 RMK A01 T03350003  RH  012%=      5-min Rain = 0
KSB1 152135Z 26015G20KT 34/00 A2999 RMK A01 T03360001  RH  012%=      5-min Rain = 0
KSB1 152136Z 23008G13KT 33/M00 A2999 RMK A01 T03321002  RH  012%=      5-min Rain = 0
KSB1 152137Z 26010KT 33/M00 A2999 RMK A01 T03271003  RH  012%=      5-min Rain = 0
KSB1 152138Z 29013KT 33/M00 A2999 RMK A01 T03271001  RH  012%=      5-min Rain = 0
KSB1 152139Z 27013KT 33/M00 A2999 RMK A01 T03261001  RH  012%=      5-min Rain = 0
KSB1 152140Z 27010G18KT 33/00 A2999 RMK A01 T032600-0  RH  012%=      5-min Rain = 0
KSB1 152141Z 27013G20KT 33/M00 A2999 RMK A01 T03261001  RH  012%=      5-min Rain = 0
KSB1 152142Z 27011KT 33/00 A2999 RMK A01 T03260000  RH  012%=      5-min Rain = 0
KSB1 152143Z 30010KT 33/00 A2999 RMK A01 T03280001  RH  012%=      5-min Rain = 0
KSB1 152144Z 33008KT 33/00 A2999 RMK A01 T03290000  RH  012%=      5-min Rain = 0
KSB1 152145Z 32007KT 33/00 A2999 RMK A01 T03290002  RH  012%=      5-min Rain = 0
KSB1 152146Z 31009KT 33/00 A2999 RMK A01 T03320002  RH  012%=      5-min Rain = 0
KSB1 152147Z 29008G13KT 33/00 A2999 RMK A01 T03330001  RH  012%=      5-min Rain = 0
KSB1 152148Z 28014KT 33/00 A2999 RMK A01 T03330000  RH  012%=      5-min Rain = 0
KSB1 152149Z 29012KT 33/M00 A2999 RMK A01 T03341002  RH  012%=      5-min Rain = 0
KSB1 152150Z 27016KT 33/M00 A2999 RMK A01 T03341002  RH  012%=      5-min Rain = 0
KSB1 152151Z 25013KT 33/M01 A2999 RMK A01 T03321005  RH  012%=      5-min Rain = 0
KSB1 152152Z 25013KT 33/M01 A2999 RMK A01 T03261005  RH  012%=      5-min Rain = 0
KSB1 152153Z 25009KT 33/M01 A2999 RMK A01 T03271005  RH  012%=      5-min Rain = 0
KSB1 152154Z 26010KT 33/M01 A2999 RMK A01 T03281005  RH  012%=      5-min Rain = 0
KSB1 152155Z 25007KT 33/M01 A2999 RMK A01 T03271008  RH  012%=      5-min Rain = 0
KSB1 152156Z 26014G20KT 33/M01 A2999 RMK A01 T03251008  RH  012%=      5-min Rain = 0
KSB1 152157Z 29014G21KT 33/M01 A2999 RMK A01 T03281007  RH  012%=      5-min Rain = 0
KSB1 152158Z 30011KT 33/M01 A2999 RMK A01 T03311009  RH  011%=      5-min Rain = 0
KSB1 152159Z 30012G18KT 33/M01 A2999 RMK A01 T03301008  RH  011%=      5-min Rain = 0
KSB1 152200Z 31016KT 33/M01 A2999 RMK A01 T03341006  RH  011%=      5-min Rain = 0
KSB1 152201Z 31012KT 34/M01 A2998 RMK A01 T03361007  RH  011%=      5-min Rain = 0
KSB1 152202Z 27016KT 33/M01 A2999 RMK A01 T03341007  RH  011%=      5-min Rain = 0
KSB1 152203Z 30017G23KT 33/M01 A2998 RMK A01 T03341009  RH  011%=      5-min Rain = 0
KSB1 152204Z 31015KT 33/M01 A2998 RMK A01 T03341008  RH  011%=      5-min Rain = 0
KSB1 152205Z 30021G27KT 33/M01 A2998 RMK A01 T03331008  RH  011%=      5-min Rain = 0
KSB1 152206Z 28019KT 34/M01 A2998 RMK A01 T03361007  RH  011%=      5-min Rain = 0
KSB1 152207Z 28014KT 33/M01 A2998 RMK A01 T03341010  RH  011%=      5-min Rain = 0
KSB1 152208Z 28016KT 34/M01 A2998 RMK A01 T03361007  RH  011%=      5-min Rain = 0
KSB1 152209Z 30017G25KT 34/M01 A2998 RMK A01 T03381008  RH  011%=      5-min Rain = 0
KSB1 152210Z 30016G23KT 34/M01 A2998 RMK A01 T03351011  RH  011%=      5-min Rain = 0
KSB1 152211Z 29009KT 33/M01 A2998 RMK A01 T03311011  RH  011%=      5-min Rain = 0
KSB1 152212Z 29015G20KT 33/M01 A2998 RMK A01 T03321009  RH  011%=      5-min Rain = 0
KSB1 152213Z 29017G23KT 33/M01 A2998 RMK A01 T03331010  RH  011%=      5-min Rain = 0
KSB1 152214Z 29017KT 33/M01 A2998 RMK A01 T03341010  RH  011%=      5-min Rain = 0
KSB1 152215Z 29020KT 33/M01 A2999 RMK A01 T03341008  RH  011%=      5-min Rain = 0
KSB1 152216Z 30011KT 33/M01 A2998 RMK A01 T03301009  RH  011%=      5-min Rain = 0
KSB1 152217Z 30011KT 33/M01 A2998 RMK A01 T03271010  RH  012%=      5-min Rain = 0
KSB1 152218Z 30008KT 33/M01 A2998 RMK A01 T03251010  RH  012%=      5-min Rain = 0
KSB1 152219Z 32006KT 32/M01 A2998 RMK A01 T03241009  RH  012%=      5-min Rain = 0
KSB1 152220Z 31009KT 33/M01 A2998 RMK A01 T03261008  RH  012%=      5-min Rain = 0
KSB1 152221Z 32012G19KT 33/M01 A2998 RMK A01 T03271009  RH  012%=      5-min Rain = 0
KSB1 152222Z 32014KT 33/M01 A2998 RMK A01 T03271009  RH  012%=      5-min Rain = 0
KSB1 152223Z 33012KT 33/M01 A2997 RMK A01 T03281008  RH  012%=      5-min Rain = 0
KSB1 152224Z 31012KT 33/M01 A2998 RMK A01 T03311006  RH  012%=      5-min Rain = 0
KSB1 152225Z 29013KT 34/M01 A2998 RMK A01 T03351005  RH  011%=      5-min Rain = 0
KSB1 152226Z 28015KT 34/M01 A2998 RMK A01 T03351006  RH  011%=      5-min Rain = 0
KSB1 152227Z 27015KT 33/M01 A2998 RMK A01 T03331007  RH  011%=      5-min Rain = 0
KSB1 152228Z 27015G21KT 33/M01 A2998 RMK A01 T03321007  RH  011%=      5-min Rain = 0
KSB1 152229Z 28020G27KT 33/M01 A2998 RMK A01 T03311005  RH  012%=      5-min Rain = 0
KSB1 152230Z 30018G24KT 34/M00 A2997 RMK A01 T03351003  RH  012%=      5-min Rain = 0
KSB1 152231Z 28014KT 34/M00 A2998 RMK A01 T03361004  RH  011%=      5-min Rain = 0
KSB1 152232Z 29016KT 34/M01 A2997 RMK A01 T03351005  RH  011%=      5-min Rain = 0
KSB1 152233Z 28017KT 33/M01 A2998 RMK A01 T03331007  RH  011%=      5-min Rain = 0
KSB1 152234Z 29017G24KT 33/M01 A2998 RMK A01 T03331006  RH  011%=      5-min Rain = 0
KSB1 152235Z 29013G18KT 33/M01 A2998 RMK A01 T03331006  RH  011%=      5-min Rain = 0
KSB1 152236Z 28012KT 33/M01 A2998 RMK A01 T03311006  RH  012%=      5-min Rain = 0
KSB1 152237Z 26016G23KT 33/M01 A2998 RMK A01 T03271007  RH  012%=      5-min Rain = 0
KSB1 152238Z 26016KT 33/M01 A2998 RMK A01 T03291007  RH  012%=      5-min Rain = 0
KSB1 152239Z 24017KT 33/M01 A2998 RMK A01 T03311008  RH  011%=      5-min Rain = 0
KSB1 152240Z 23015KT 33/M01 A2997 RMK A01 T03291009  RH  011%=      5-min Rain = 0
KSB1 152241Z 24018G24KT 33/M01 A2997 RMK A01 T03281008  RH  012%=      5-min Rain = 0
KSB1 152242Z 23010KT 33/M01 A2998 RMK A01 T03281010  RH  011%=      5-min Rain = 0
KSB1 152243Z 24006KT 33/M01 A2998 RMK A01 T03271009  RH  012%=      5-min Rain = 0
KSB1 152244Z 28011G17KT 33/M01 A2997 RMK A01 T03261010  RH  012%=      5-min Rain = 0
KSB1 152245Z 29017KT 33/M01 A2997 RMK A01 T03291012  RH  011%=      5-min Rain = 0
KSB1 152246Z 28015G20KT 33/M01 A2997 RMK A01 T03291013  RH  011%=      5-min Rain = 0
KSB1 152247Z 27014KT 33/M01 A2997 RMK A01 T03301014  RH  011%=      5-min Rain = 0
KSB1 152248Z 24009KT 33/M01 A2997 RMK A01 T03291014  RH  011%=      5-min Rain = 0
KSB1 152249Z 28008KT 33/M02 A2997 RMK A01 T03271015  RH  011%=      5-min Rain = 0
KSB1 152250Z 28008KT 33/M01 A2997 RMK A01 T03271013  RH  011%=      5-min Rain = 0
KSB1 152251Z 31010KT 33/M01 A2997 RMK A01 T03291010  RH  011%=      5-min Rain = 0
KSB1 152252Z 30014KT 33/M01 A2997 RMK A01 T03331011  RH  011%=      5-min Rain = 0
KSB1 152253Z 30013KT 33/M01 A2997 RMK A01 T03331013  RH  011%=      5-min Rain = 0
KSB1 152254Z 28015KT 33/M01 A2997 RMK A01 T03321014  RH  011%=      5-min Rain = 0
KSB1 152255Z 28018G23KT 33/M02 A2997 RMK A01 T03331017  RH  011%=      5-min Rain = 0
KSB1 152256Z 28017KT 33/M02 A2997 RMK A01 T03321018  RH  011%=      5-min Rain = 0
KSB1 152257Z 27015KT 33/M02 A2997 RMK A01 T03301020  RH  010%=      5-min Rain = 0
KSB1 152258Z 28012KT 33/M02 A2997 RMK A01 T03281021  RH  011%=      5-min Rain = 0
KSB1 152259Z 29017KT 33/M02 A2997 RMK A01 T03281020  RH  011%=      5-min Rain = 0
KSB1 152300Z 30015KT 33/M02 A2997 RMK A01 T03291021  RH  010%=      5-min Rain = 0
KSB1 152301Z 30013KT 33/M02 A2997 RMK A01 T03291022  RH  010%=      5-min Rain = 0
KSB1 152302Z 31007KT 33/M02 A2997 RMK A01 T03281020  RH  011%=      5-min Rain = 0
KSB1 152303Z 28009KT 33/M02 A2997 RMK A01 T03271020  RH  011%=      5-min Rain = 0
KSB1 152304Z 28014KT 33/M02 A2997 RMK A01 T03301018  RH  011%=      5-min Rain = 0
KSB1 152305Z 26013G18KT 33/M02 A2997 RMK A01 T03301017  RH  011%=      5-min Rain = 0
KSB1 152306Z 26017KT 33/M02 A2997 RMK A01 T03301016  RH  011%=      5-min Rain = 0
KSB1 152307Z 26017KT 33/M02 A2997 RMK A01 T03291015  RH  011%=      5-min Rain = 0
KSB1 152308Z 26014KT 33/M01 A2997 RMK A01 T03291013  RH  011%=      5-min Rain = 0
KSB1 152309Z 26011G16KT 33/M01 A2997 RMK A01 T03291013  RH  011%=      5-min Rain = 0
KSB1 152310Z 25014G19KT 33/M01 A2997 RMK A01 T03291012  RH  011%=      5-min Rain = 0
KSB1 152311Z 29016G22KT 33/M01 A2997 RMK A01 T03291014  RH  011%=      5-min Rain = 0
KSB1 152312Z 28017G22KT 33/M02 A2997 RMK A01 T03291015  RH  011%=      5-min Rain = 0
KSB1 152313Z 28018KT 33/M01 A2997 RMK A01 T03301014  RH  011%=      5-min Rain = 0
KSB1 152314Z 28016KT 33/M01 A2997 RMK A01 T03301013  RH  011%=      5-min Rain = 0
KSB1 152315Z 28015KT 33/M01 A2997 RMK A01 T03291012  RH  011%=      5-min Rain = 0
KSB1 152316Z 27010KT 33/M01 A2997 RMK A01 T03281012  RH  011%=      5-min Rain = 0
KSB1 152317Z 31010G15KT 33/M01 A2996 RMK A01 T03271012  RH  011%=      5-min Rain = 0
KSB1 152318Z 27008KT 33/M01 A2997 RMK A01 T03261011  RH  011%=      5-min Rain = 0
KSB1 152319Z 28012G18KT 33/M01 A2997 RMK A01 T03261010  RH  012%=      5-min Rain = 0
KSB1 152320Z 29015G22KT 33/M01 A2997 RMK A01 T03301006  RH  012%=      5-min Rain = 0
KSB1 152321Z 28016KT 33/M01 A2997 RMK A01 T03321007  RH  011%=      5-min Rain = 0
KSB1 152322Z 29018G23KT 33/M01 A2996 RMK A01 T03321007  RH  011%=      5-min Rain = 0
KSB1 152323Z 29016G21KT 33/M01 A2996 RMK A01 T03311007  RH  011%=      5-min Rain = 0
KSB1 152324Z 27014KT 33/M01 A2997 RMK A01 T03301007  RH  012%=      5-min Rain = 0
KSB1 152325Z 26013KT 33/M01 A2997 RMK A01 T03311005  RH  012%=      5-min Rain = 0
KSB1 152326Z 26013KT 33/M00 A2996 RMK A01 T03331004  RH  012%=      5-min Rain = 0
KSB1 152327Z 26011G16KT 33/M01 A2996 RMK A01 T03331005  RH  012%=      5-min Rain = 0
KSB1 152328Z 27009KT 33/M01 A2996 RMK A01 T03311006  RH  012%=      5-min Rain = 0
KSB1 152329Z 28008KT 33/M01 A2996 RMK A01 T03281006  RH  012%=      5-min Rain = 0
KSB1 152330Z 30010KT 33/M01 A2996 RMK A01 T03281006  RH  012%=      5-min Rain = 0
KSB1 152331Z 30010KT 33/M01 A2996 RMK A01 T03281006  RH  012%=      5-min Rain = 0
KSB1 152332Z 29005KT 33/M01 A2996 RMK A01 T03261006  RH  012%=      5-min Rain = 0
KSB1 152333Z 33009KT 33/M00 A2996 RMK A01 T03271003  RH  012%=      5-min Rain = 0
KSB1 152334Z 31011KT 33/M00 A2996 RMK A01 T03301003  RH  012%=      5-min Rain = 0
KSB1 152335Z 31007KT 33/M00 A2996 RMK A01 T03321002  RH  012%=      5-min Rain = 0
KSB1 152336Z 30010KT 33/M00 A2996 RMK A01 T03321002  RH  012%=      5-min Rain = 0
KSB1 152337Z 28019KT 33/M01 A2996 RMK A01 T03331005  RH  012%=      5-min Rain = 0
KSB1 152338Z 27015KT 33/M01 A2996 RMK A01 T03301008  RH  011%=      5-min Rain = 0
KSB1 152339Z 28021KT 33/M01 A2996 RMK A01 T03301006  RH  012%=      5-min Rain = 0
KSB1 152340Z 28018KT 33/M01 A2996 RMK A01 T03301006  RH  012%=      5-min Rain = 0
KSB1 152341Z 28016KT 33/M01 A2996 RMK A01 T03301005  RH  012%=      5-min Rain = 0
KSB1 152342Z 27016G21KT 33/M00 A2996 RMK A01 T03291003  RH  012%=      5-min Rain = 0
KSB1 152343Z 27014KT 33/M00 A2996 RMK A01 T03291002  RH  012%=      5-min Rain = 0
KSB1 152344Z 28017KT 33/M00 A2996 RMK A01 T03281003  RH  012%=      5-min Rain = 0
KSB1 152345Z 29016KT 33/M00 A2996 RMK A01 T03251003  RH  012%=      5-min Rain = 0
KSB1 152346Z 28014KT 32/M00 A2996 RMK A01 T03231002  RH  012%=      5-min Rain = 0
KSB1 152347Z 29014KT 32/M00 A2996 RMK A01 T03231003  RH  012%=      5-min Rain = 0
KSB1 152348Z 30012KT 32/M00 A2996 RMK A01 T03231002  RH  012%=      5-min Rain = 0
KSB1 152349Z 29013KT 32/M00 A2996 RMK A01 T03241002  RH  012%=      5-min Rain = 0
KSB1 152350Z 29015KT 33/M00 A2996 RMK A01 T03251002  RH  012%=      5-min Rain = 0
KSB1 152351Z 28015G20KT 33/M00 A2996 RMK A01 T03251002  RH  012%=      5-min Rain = 0
KSB1 152352Z 27014KT 33/M00 A2996 RMK A01 T03251003  RH  012%=      5-min Rain = 0
KSB1 152353Z 27010KT 33/M00 A2996 RMK A01 T03251004  RH  012%=      5-min Rain = 0
KSB1 152354Z 27006KT 32/M01 A2996 RMK A01 T03231005  RH  012%=      5-min Rain = 0
KSB1 152355Z 24008KT 32/M00 A2996 RMK A01 T03211003  RH  012%=      5-min Rain = 0
KSB1 152356Z 26008KT 32/M00 A2996 RMK A01 T03211002  RH  013%=      5-min Rain = 0
KSB1 152357Z 26006KT 32/M00 A2996 RMK A01 T03201004  RH  013%=      5-min Rain = 0
KSB1 152358Z 24006KT 32/M00 A2996 RMK A01 T03191004  RH  013%=      5-min Rain = 0
KSB1 152359Z 25010KT 32/M00 A2996 RMK A01 T03191003  RH  013%=      5-min Rain = 0
KSB1 160000Z 25013KT 32/M00 A2995 RMK A01 T03201004  RH  012%=      5-min Rain = 0
KSB1 160001Z 26015G24KT 32/M00 A2995 RMK A01 T03211002  RH  013%=      5-min Rain = 0
KSB1 160002Z 33013G20KT 32/M00 A2995 RMK A01 T03231002  RH  012%=      5-min Rain = 0
KSB1 160003Z 32010KT 33/00 A2995 RMK A01 T032500-0  RH  012%=      5-min Rain = 0
KSB1 160004Z 31011KT 33/M00 A2995 RMK A01 T03271001  RH  012%=      5-min Rain = 0
KSB1 160005Z 31013G19KT 33/M00 A2995 RMK A01 T03271001  RH  012%=      5-min Rain = 0
KSB1 160006Z 30012KT 33/00 A2995 RMK A01 T03270000  RH  012%=      5-min Rain = 0
KSB1 160007Z 28013KT 33/M00 A2995 RMK A01 T03261002  RH  012%=      5-min Rain = 0
KSB1 160008Z 28014KT 33/M00 A2995 RMK A01 T03261001  RH  012%=      5-min Rain = 0
KSB1 160009Z 29011KT 33/M00 A2995 RMK A01 T03251002  RH  012%=      5-min Rain = 0
KSB1 160010Z 29008KT 33/M00 A2995 RMK A01 T03251002  RH  012%=      5-min Rain = 0
KSB1 160011Z 30010KT 33/00 A2995 RMK A01 T03250000  RH  012%=      5-min Rain = 0
KSB1 160012Z 29012G17KT 33/00 A2995 RMK A01 T03270000  RH  012%=      5-min Rain = 0
KSB1 160013Z 30015G20KT 33/M00 A2995 RMK A01 T03271001  RH  012%=      5-min Rain = 0
KSB1 160014Z 27019KT 33/M00 A2995 RMK A01 T03261002  RH  012%=      5-min Rain = 0
KSB1 160015Z 26016KT 33/M00 A2995 RMK A01 T03251001  RH  012%=      5-min Rain = 0
KSB1 160016Z 26013KT 32/M00 A2995 RMK A01 T03241002  RH  012%=      5-min Rain = 0
KSB1 160017Z 27012KT 32/M00 A2995 RMK A01 T03241002  RH  012%=      5-min Rain = 0
KSB1 160018Z 25011KT 32/M00 A2995 RMK A01 T03231002  RH  013%=      5-min Rain = 0
KSB1 160019Z 25012KT 32/M00 A2995 RMK A01 T03231001  RH  013%=      5-min Rain = 0
KSB1 160020Z 25013KT 32/M00 A2995 RMK A01 T03231001  RH  013%=      5-min Rain = 0
KSB1 160021Z 27013KT 32/M00 A2995 RMK A01 T03231001  RH  013%=      5-min Rain = 0
KSB1 160022Z 27013KT 32/M00 A2995 RMK A01 T03231002  RH  012%=      5-min Rain = 0
KSB1 160023Z 26014KT 32/M00 A2995 RMK A01 T03231002  RH  012%=      5-min Rain = 0
KSB1 160024Z 29012G18KT 32/M00 A2995 RMK A01 T03231002  RH  012%=      5-min Rain = 0
KSB1 160025Z 29013KT 33/M00 A2995 RMK A01 T03251004  RH  012%=      5-min Rain = 0
KSB1 160026Z 29014KT 32/M01 A2995 RMK A01 T03241005  RH  012%=      5-min Rain = 0
KSB1 160027Z 29011KT 32/M01 A2995 RMK A01 T03231006  RH  012%=      5-min Rain = 0
KSB1 160028Z 29011KT 32/M01 A2995 RMK A01 T03221006  RH  012%=      5-min Rain = 0
KSB1 160029Z 30010KT 32/M01 A2995 RMK A01 T03211005  RH  012%=      5-min Rain = 0
KSB1 160030Z 30010KT 32/M01 A2995 RMK A01 T03211005  RH  012%=      5-min Rain = 0
KSB1 160031Z 29008KT 32/M01 A2995 RMK A01 T03211005  RH  012%=      5-min Rain = 0
KSB1 160032Z 30007KT 32/M00 A2995 RMK A01 T03221004  RH  012%=      5-min Rain = 0
KSB1 160033Z 30009KT 32/M00 A2995 RMK A01 T03231004  RH  012%=      5-min Rain = 0
KSB1 160034Z 29012G17KT 32/M00 A2995 RMK A01 T03231004  RH  012%=      5-min Rain = 0
KSB1 160035Z 29010KT 32/M01 A2995 RMK A01 T03211005  RH  012%=      5-min Rain = 0
KSB1 160036Z 29008G13KT 32/M00 A2995 RMK A01 T03191004  RH  013%=      5-min Rain = 0
KSB1 160037Z 29008KT 32/M00 A2995 RMK A01 T03191004  RH  013%=      5-min Rain = 0
KSB1 160038Z 31009KT 32/M00 A2995 RMK A01 T03201002  RH  013%=      5-min Rain = 0
KSB1 160039Z 30012KT 32/M00 A2995 RMK A01 T03211004  RH  012%=      5-min Rain = 0
KSB1 160040Z 31012KT 32/M00 A2995 RMK A01 T03211004  RH  012%=      5-min Rain = 0
KSB1 160041Z 30012KT 32/M00 A2995 RMK A01 T03211004  RH  012%=      5-min Rain = 0
KSB1 160042Z 30010KT 32/M00 A2995 RMK A01 T03221004  RH  012%=      5-min Rain = 0
KSB1 160043Z 31012KT 32/M00 A2995 RMK A01 T03221004  RH  012%=      5-min Rain = 0
KSB1 160044Z 31011KT 32/M01 A2995 RMK A01 T03221005  RH  012%=      5-min Rain = 0
KSB1 160045Z 31010KT 32/M01 A2995 RMK A01 T03221005  RH  012%=      5-min Rain = 0
KSB1 160046Z 30011KT 32/M01 A2995 RMK A01 T03221005  RH  012%=      5-min Rain = 0
KSB1 160047Z 29016G22KT 32/M01 A2995 RMK A01 T03231005  RH  012%=      5-min Rain = 0
KSB1 160048Z 28013KT 32/M00 A2996 RMK A01 T03221004  RH  012%=      5-min Rain = 0
KSB1 160049Z 28010KT 32/M01 A2995 RMK A01 T03221005  RH  012%=      5-min Rain = 0
KSB1 160050Z 29009KT 32/M00 A2996 RMK A01 T03221004  RH  012%=      5-min Rain = 0
KSB1 160051Z 30010KT 32/M01 A2996 RMK A01 T03221006  RH  012%=      5-min Rain = 0
KSB1 160052Z 31012KT 32/M01 A2995 RMK A01 T03221007  RH  012%=      5-min Rain = 0
KSB1 160053Z 31013G18KT 32/M01 A2995 RMK A01 T03211008  RH  012%=      5-min Rain = 0
KSB1 160054Z 31010KT 32/M01 A2995 RMK A01 T03201007  RH  012%=      5-min Rain = 0
KSB1 160055Z 29011KT 32/M01 A2996 RMK A01 T03201008  RH  012%=      5-min Rain = 0
KSB1 160056Z 29010KT 32/M01 A2996 RMK A01 T03201007  RH  012%=      5-min Rain = 0
KSB1 160057Z 29011KT 32/M01 A2996 RMK A01 T03201007  RH  012%=      5-min Rain = 0
KSB1 160058Z 28009KT 32/M01 A2996 RMK A01 T03191007  RH  012%=      5-min Rain = 0
KSB1 160059Z 29010KT 32/M01 A2996 RMK A01 T03191007  RH  012%=      5-min Rain = 0
KSB1 160100Z 30011G16KT 32/M01 A2996 RMK A01 T03191007  RH  012%=      5-min Rain = 0
KSB1 160101Z 30011KT 32/M01 A2996 RMK A01 T03191008  RH  012%=      5-min Rain = 0
KSB1 160102Z 30009KT 32/M01 A2996 RMK A01 T03191009  RH  012%=      5-min Rain = 0
KSB1 160103Z 31011KT 32/M01 A2996 RMK A01 T03181013  RH  012%=      5-min Rain = 0
KSB1 160104Z 31012KT 32/M01 A2995 RMK A01 T03171014  RH  012%=      5-min Rain = 0
KSB1 160105Z 32012KT 32/M01 A2995 RMK A01 T03171013  RH  012%=      5-min Rain = 0
KSB1 160106Z 31013KT 32/M01 A2995 RMK A01 T03171011  RH  012%=      5-min Rain = 0
KSB1 160107Z 30014KT 32/M01 A2995 RMK A01 T03161010  RH  012%=      5-min Rain = 0
KSB1 160108Z 27014G19KT 32/M01 A2995 RMK A01 T03161010  RH  012%=      5-min Rain = 0
KSB1 160109Z 29016G21KT 32/M01 A2996 RMK A01 T03161010  RH  012%=      5-min Rain = 0
KSB1 160110Z 28015KT 32/M01 A2996 RMK A01 T03161010  RH  012%=      5-min Rain = 0
KSB1 160111Z 28013KT 32/M01 A2996 RMK A01 T03151011  RH  012%=      5-min Rain = 0
KSB1 160112Z 28013KT 32/M01 A2996 RMK A01 T03151009  RH  012%=      5-min Rain = 0
KSB1 160113Z 28013KT 31/M01 A2996 RMK A01 T03141009  RH  012%=      5-min Rain = 0
KSB1 160114Z 29012KT 31/M01 A2996 RMK A01 T03141009  RH  013%=      5-min Rain = 0
KSB1 160115Z 29009KT 31/M01 A2996 RMK A01 T03141008  RH  013%=      5-min Rain = 0
KSB1 160116Z 30007KT 31/M01 A2996 RMK A01 T03141008  RH  013%=      5-min Rain = 0
KSB1 160117Z 31009KT 31/M01 A2996 RMK A01 T03141009  RH  012%=      5-min Rain = 0
KSB1 160118Z 32011KT 31/M01 A2996 RMK A01 T03131013  RH  012%=      5-min Rain = 0
KSB1 160119Z 32010KT 31/M02 A2996 RMK A01 T03141016  RH  012%=      5-min Rain = 0
KSB1 160120Z 32012KT 31/M02 A2996 RMK A01 T03131017  RH  012%=      5-min Rain = 0
KSB1 160121Z 31009KT 31/M02 A2996 RMK A01 T03121017  RH  012%=      5-min Rain = 0
KSB1 160122Z 31008KT 31/M02 A2996 RMK A01 T03121018  RH  012%=      5-min Rain = 0
KSB1 160123Z 31008KT 31/M02 A2996 RMK A01 T03121017  RH  012%=      5-min Rain = 0
KSB1 160124Z 31007KT 31/M02 A2996 RMK A01 T03121017  RH  012%=      5-min Rain = 0
KSB1 160125Z 30008KT 31/M02 A2996 RMK A01 T03121016  RH  012%=      5-min Rain = 0
KSB1 160126Z 31012KT 31/M02 A2996 RMK A01 T03121015  RH  012%=      5-min Rain = 0
KSB1 160127Z 32010KT 31/M02 A2996 RMK A01 T03111015  RH  012%=      5-min Rain = 0
KSB1 160128Z 31009KT 31/M02 A2996 RMK A01 T03101017  RH  012%=      5-min Rain = 0
KSB1 160129Z 30010KT 31/M02 A2996 RMK A01 T03101016  RH  012%=      5-min Rain = 0
KSB1 160130Z 30012KT 31/M01 A2996 RMK A01 T03101014  RH  012%=      5-min Rain = 0
KSB1 160131Z 30009KT 31/M01 A2996 RMK A01 T03101012  RH  012%=      5-min Rain = 0
KSB1 160132Z 29011KT 31/M01 A2996 RMK A01 T03101010  RH  013%=      5-min Rain = 0
KSB1 160133Z 29010KT 31/M01 A2996 RMK A01 T03101009  RH  013%=      5-min Rain = 0
KSB1 160134Z 27010KT 31/M01 A2996 RMK A01 T03091008  RH  013%=      5-min Rain = 0
KSB1 160135Z 28009KT 31/M01 A2996 RMK A01 T03091008  RH  013%=      5-min Rain = 0
KSB1 160136Z 29007KT 31/M01 A2996 RMK A01 T03081009  RH  013%=      5-min Rain = 0
KSB1 160137Z 30009KT 31/M01 A2996 RMK A01 T03081010  RH  013%=      5-min Rain = 0
KSB1 160138Z 30010KT 31/M01 A2996 RMK A01 T03081009  RH  013%=      5-min Rain = 0
KSB1 160139Z 30011KT 31/M01 A2996 RMK A01 T03081010  RH  013%=      5-min Rain = 0
KSB1 160140Z 31008KT 31/M01 A2996 RMK A01 T03081010  RH  013%=      5-min Rain = 0
KSB1 160141Z 31010KT 31/M01 A2996 RMK A01 T03081010  RH  013%=      5-min Rain = 0
KSB1 160142Z 31011KT 31/M01 A2996 RMK A01 T03071011  RH  013%=      5-min Rain = 0
KSB1 160143Z 31009KT 31/M01 A2996 RMK A01 T03071012  RH  013%=      5-min Rain = 0
KSB1 160144Z 32013KT 31/M01 A2996 RMK A01 T03061012  RH  013%=      5-min Rain = 0
KSB1 160145Z 31011KT 31/M01 A2996 RMK A01 T03061011  RH  013%=      5-min Rain = 0
KSB1 160146Z 31012KT 31/M01 A2996 RMK A01 T03061011  RH  013%=      5-min Rain = 0
KSB1 160147Z 31012KT 31/M01 A2996 RMK A01 T03051011  RH  013%=      5-min Rain = 0
KSB1 160148Z 31014KT 31/M01 A2996 RMK A01 T03051011  RH  013%=      5-min Rain = 0
KSB1 160149Z 31012KT 31/M01 A2996 RMK A01 T03051012  RH  013%=      5-min Rain = 0
KSB1 160150Z 31012KT 30/M01 A2996 RMK A01 T03041014  RH  013%=      5-min Rain = 0
KSB1 160151Z 31013KT 30/M01 A2996 RMK A01 T03041013  RH  013%=      5-min Rain = 0
KSB1 160152Z 31011KT 30/M01 A2996 RMK A01 T03041013  RH  013%=      5-min Rain = 0
KSB1 160153Z 32012G18KT 30/M01 A2996 RMK A01 T03041013  RH  013%=      5-min Rain = 0
KSB1 160154Z 32013KT 30/M01 A2996 RMK A01 T03031013  RH  013%=      5-min Rain = 0
KSB1 160155Z 31013KT 30/M01 A2996 RMK A01 T03031014  RH  013%=      5-min Rain = 0
KSB1 160156Z 32010KT 30/M01 A2996 RMK A01 T03031014  RH  013%=      5-min Rain = 0
KSB1 160157Z 31011KT 30/M01 A2996 RMK A01 T03021014  RH  013%=      5-min Rain = 0
KSB1 160158Z 31012KT 30/M01 A2996 RMK A01 T03021014  RH  013%=      5-min Rain = 0
KSB1 160159Z 31011KT 30/M02 A2996 RMK A01 T03021015  RH  013%=      5-min Rain = 0
KSB1 160200Z 32013KT 30/M02 A2996 RMK A01 T03011016  RH  013%=      5-min Rain = 0
KSB1 160201Z 31014KT 30/M02 A2996 RMK A01 T03011017  RH  013%=      5-min Rain = 0
KSB1 160202Z 31013KT 30/M02 A2996 RMK A01 T03021017  RH  013%=      5-min Rain = 0
KSB1 160203Z 31013KT 30/M02 A2996 RMK A01 T03021017  RH  013%=      5-min Rain = 0
KSB1 160204Z 31013KT 30/M02 A2996 RMK A01 T03011017  RH  013%=      5-min Rain = 0
KSB1 160205Z 31013KT 30/M02 A2996 RMK A01 T03011016  RH  013%=      5-min Rain = 0
KSB1 160206Z 31013KT 30/M02 A2996 RMK A01 T03011017  RH  013%=      5-min Rain = 0
KSB1 160207Z 31014KT 30/M02 A2996 RMK A01 T03011017  RH  013%=      5-min Rain = 0
KSB1 160208Z 31013KT 30/M02 A2996 RMK A01 T03011016  RH  013%=      5-min Rain = 0
KSB1 160209Z 31013KT 30/M02 A2996 RMK A01 T03011016  RH  013%=      5-min Rain = 0
KSB1 160210Z 31011KT 30/M02 A2996 RMK A01 T03011016  RH  013%=      5-min Rain = 0
KSB1 160211Z 30013KT 30/M02 A2996 RMK A01 T03001016  RH  013%=      5-min Rain = 0
KSB1 160212Z 31013KT 30/M02 A2996 RMK A01 T03001016  RH  013%=      5-min Rain = 0
KSB1 160213Z 31012KT 30/M02 A2996 RMK A01 T03001015  RH  013%=      5-min Rain = 0
KSB1 160214Z 31013KT 30/M02 A2996 RMK A01 T03001015  RH  013%=      5-min Rain = 0
KSB1 160215Z 31014KT 30/M02 A2997 RMK A01 T03001016  RH  013%=      5-min Rain = 0
KSB1 160216Z 30012KT 30/M02 A2997 RMK A01 T03001015  RH  013%=      5-min Rain = 0
KSB1 160217Z 31012KT 30/M02 A2997 RMK A01 T03001015  RH  013%=      5-min Rain = 0
KSB1 160218Z 31011KT 30/M02 A2997 RMK A01 T02991015  RH  013%=      5-min Rain = 0
KSB1 160219Z 31013KT 30/M02 A2997 RMK A01 T02991015  RH  013%=      5-min Rain = 0
KSB1 160220Z 31013KT 30/M02 A2997 RMK A01 T02991015  RH  013%=      5-min Rain = 0
KSB1 160221Z 31011KT 30/M02 A2997 RMK A01 T02991015  RH  013%=      5-min Rain = 0
KSB1 160222Z 31013KT 30/M02 A2997 RMK A01 T02991015  RH  013%=      5-min Rain = 0
KSB1 160223Z 31013KT 30/M02 A2997 RMK A01 T02991015  RH  013%=      5-min Rain = 0
KSB1 160224Z 30012KT 30/M02 A2997 RMK A01 T02991015  RH  013%=      5-min Rain = 0
KSB1 160225Z 31013KT 30/M02 A2997 RMK A01 T02991015  RH  013%=      5-min Rain = 0
KSB1 160226Z 30011KT 30/M02 A2997 RMK A01 T02981015  RH  013%=      5-min Rain = 0
KSB1 160227Z 31013KT 30/M01 A2997 RMK A01 T02981014  RH  013%=      5-min Rain = 0
KSB1 160228Z 31013KT 30/M01 A2997 RMK A01 T02981014  RH  013%=      5-min Rain = 0
KSB1 160229Z 31012KT 30/M02 A2997 RMK A01 T02981015  RH  013%=      5-min Rain = 0
KSB1 160230Z 31011KT 30/M02 A2997 RMK A01 T02971015  RH  013%=      5-min Rain = 0
KSB1 160231Z 31012KT 30/M01 A2997 RMK A01 T02971014  RH  013%=      5-min Rain = 0
KSB1 160232Z 31014KT 30/M01 A2997 RMK A01 T02971014  RH  013%=      5-min Rain = 0
KSB1 160233Z 31014KT 30/M01 A2997 RMK A01 T02971014  RH  013%=      5-min Rain = 0
KSB1 160234Z 31012KT 30/M01 A2997 RMK A01 T02971014  RH  013%=      5-min Rain = 0
KSB1 160235Z 31011KT 30/M01 A2997 RMK A01 T02971014  RH  013%=      5-min Rain = 0
KSB1 160236Z 31012KT 30/M01 A2997 RMK A01 T02971014  RH  013%=      5-min Rain = 0
KSB1 160237Z 31012KT 30/M01 A2997 RMK A01 T02961014  RH  013%=      5-min Rain = 0
KSB1 160238Z 30011KT 30/M01 A2997 RMK A01 T02961014  RH  013%=      5-min Rain = 0
KSB1 160239Z 31012KT 30/M01 A2997 RMK A01 T02961014  RH  013%=      5-min Rain = 0
KSB1 160240Z 31010KT 30/M01 A2997 RMK A01 T02951014  RH  013%=      5-min Rain = 0
KSB1 160241Z 31011KT 30/M01 A2997 RMK A01 T02951013  RH  013%=      5-min Rain = 0
KSB1 160242Z 31010KT 29/M01 A2997 RMK A01 T02941013  RH  014%=      5-min Rain = 0
KSB1 160243Z 31011KT 29/M01 A2997 RMK A01 T02941013  RH  014%=      5-min Rain = 0
KSB1 160244Z 31011KT 29/M01 A2998 RMK A01 T02941013  RH  014%=      5-min Rain = 0
KSB1 160245Z 30010KT 29/M01 A2998 RMK A01 T02941013  RH  014%=      5-min Rain = 0
KSB1 160246Z 31011KT 29/M01 A2998 RMK A01 T02931013  RH  014%=      5-min Rain = 0
KSB1 160247Z 31010KT 29/M01 A2998 RMK A01 T02931013  RH  014%=      5-min Rain = 0
KSB1 160248Z 32011KT 29/M01 A2998 RMK A01 T02931014  RH  014%=      5-min Rain = 0
KSB1 160249Z 31010KT 29/M01 A2998 RMK A01 T02931014  RH  014%=      5-min Rain = 0
KSB1 160250Z 31009KT 29/M01 A2998 RMK A01 T02931014  RH  014%=      5-min Rain = 0
KSB1 160251Z 31010KT 29/M01 A2998 RMK A01 T02931013  RH  014%=      5-min Rain = 0
KSB1 160252Z 31010KT 29/M01 A2998 RMK A01 T02921014  RH  014%=      5-min Rain = 0
KSB1 160253Z 31010KT 29/M01 A2998 RMK A01 T02911014  RH  014%=      5-min Rain = 0
KSB1 160254Z 31010KT 29/M01 A2998 RMK A01 T02911014  RH  014%=      5-min Rain = 0
KSB1 160255Z 32010KT 29/M01 A2998 RMK A01 T02911014  RH  014%=      5-min Rain = 0
KSB1 160256Z 31010KT 29/M01 A2998 RMK A01 T02911013  RH  014%=      5-min Rain = 0
KSB1 160257Z 32010KT 29/M01 A2998 RMK A01 T02901014  RH  014%=      5-min Rain = 0
KSB1 160258Z 31010KT 29/M01 A2998 RMK A01 T02901014  RH  014%=      5-min Rain = 0
KSB1 160259Z 32010KT 29/M01 A2998 RMK A01 T02901014  RH  014%=      5-min Rain = 0
KSB1 160300Z 31009KT 29/M01 A2998 RMK A01 T02891014  RH  014%=      5-min Rain = 0
KSB1 160301Z 31011KT 29/M01 A2998 RMK A01 T02891014  RH  014%=      5-min Rain = 0
KSB1 160302Z 31010KT 29/M01 A2998 RMK A01 T02891014  RH  014%=      5-min Rain = 0
KSB1 160303Z 31010KT 29/M01 A2998 RMK A01 T02891014  RH  014%=      5-min Rain = 0
KSB1 160304Z 31009KT 29/M02 A2998 RMK A01 T02881015  RH  014%=      5-min Rain = 0
KSB1 160305Z 31010KT 29/M02 A2998 RMK A01 T02881015  RH  014%=      5-min Rain = 0
KSB1 160306Z 31009KT 29/M02 A2998 RMK A01 T02871016  RH  014%=      5-min Rain = 0
KSB1 160307Z 31009KT 29/M02 A2998 RMK A01 T02881016  RH  014%=      5-min Rain = 0
KSB1 160308Z 31010KT 29/M02 A2998 RMK A01 T02881016  RH  014%=      5-min Rain = 0
KSB1 160309Z 31009KT 29/M02 A2998 RMK A01 T02881017  RH  014%=      5-min Rain = 0
KSB1 160310Z 31010KT 29/M02 A2998 RMK A01 T02871017  RH  014%=      5-min Rain = 0
KSB1 160311Z 31010KT 29/M02 A2998 RMK A01 T02871017  RH  014%=      5-min Rain = 0
KSB1 160312Z 31010KT 29/M02 A2998 RMK A01 T02871018  RH  014%=      5-min Rain = 0
KSB1 160313Z 31009KT 29/M02 A2998 RMK A01 T02881017  RH  014%=      5-min Rain = 0
KSB1 160314Z 31008KT 29/M02 A2998 RMK A01 T02881017  RH  014%=      5-min Rain = 0
KSB1 160315Z 31010KT 29/M02 A2998 RMK A01 T02871018  RH  014%=      5-min Rain = 0
KSB1 160316Z 31009KT 29/M02 A2998 RMK A01 T02871018  RH  014%=      5-min Rain = 0
KSB1 160317Z 31008KT 29/M02 A2998 RMK A01 T02871018  RH  014%=      5-min Rain = 0
KSB1 160318Z 32008KT 29/M02 A2998 RMK A01 T02871018  RH  014%=      5-min Rain = 0
KSB1 160319Z 31009KT 29/M02 A2998 RMK A01 T02871018  RH  014%=      5-min Rain = 0
KSB1 160320Z 31009KT 29/M02 A2998 RMK A01 T02871019  RH  014%=      5-min Rain = 0
KSB1 160321Z 31010KT 29/M02 A2998 RMK A01 T02871019  RH  014%=      5-min Rain = 0
KSB1 160322Z 31010KT 29/M02 A2998 RMK A01 T02871020  RH  013%=      5-min Rain = 0
KSB1 160323Z 31009KT 29/M02 A2998 RMK A01 T02871020  RH  013%=      5-min Rain = 0
KSB1 160324Z 31009KT 29/M02 A2998 RMK A01 T02881020  RH  013%=      5-min Rain = 0
KSB1 160325Z 31009KT 29/M02 A2998 RMK A01 T02881020  RH  013%=      5-min Rain = 0
KSB1 160326Z 31008KT 29/M02 A2998 RMK A01 T02881019  RH  013%=      5-min Rain = 0
KSB1 160327Z 31007KT 29/M02 A2998 RMK A01 T02871020  RH  013%=      5-min Rain = 0
KSB1 160328Z 31008KT 29/M02 A2999 RMK A01 T02861020  RH  014%=      5-min Rain = 0
KSB1 160329Z 31008KT 29/M02 A2999 RMK A01 T02861020  RH  014%=      5-min Rain = 0
KSB1 160330Z 31008KT 29/M02 A2999 RMK A01 T02861019  RH  014%=      5-min Rain = 0
KSB1 160331Z 31008KT 29/M02 A2999 RMK A01 T02851020  RH  014%=      5-min Rain = 0
KSB1 160332Z 31008KT 29/M02 A2999 RMK A01 T02851020  RH  014%=      5-min Rain = 0
KSB1 160333Z 31009KT 28/M02 A2999 RMK A01 T02841020  RH  014%=      5-min Rain = 0
KSB1 160334Z 31009KT 28/M02 A2999 RMK A01 T02841021  RH  014%=      5-min Rain = 0
KSB1 160335Z 31008KT 29/M02 A2999 RMK A01 T02851021  RH  014%=      5-min Rain = 0
KSB1 160336Z 31007KT 29/M02 A2999 RMK A01 T02851020  RH  014%=      5-min Rain = 0
KSB1 160337Z 31008KT 29/M02 A2999 RMK A01 T02851020  RH  014%=      5-min Rain = 0
KSB1 160338Z 31007KT 28/M02 A2999 RMK A01 T02841020  RH  014%=      5-min Rain = 0
KSB1 160339Z 31008KT 28/M02 A2999 RMK A01 T02841020  RH  014%=      5-min Rain = 0
KSB1 160340Z 31008KT 28/M02 A2999 RMK A01 T02841020  RH  014%=      5-min Rain = 0
KSB1 160341Z 31008KT 28/M02 A2999 RMK A01 T02841020  RH  014%=      5-min Rain = 0
KSB1 160342Z 31008KT 28/M02 A2999 RMK A01 T02841020  RH  014%=      5-min Rain = 0
KSB1 160343Z 31007KT 28/M02 A2999 RMK A01 T02831020  RH  014%=      5-min Rain = 0
KSB1 160344Z 31007KT 28/M02 A2999 RMK A01 T02831020  RH  014%=      5-min Rain = 0
KSB1 160345Z 31007KT 28/M02 A30 RMK A01 T02821020  RH  014%=      5-min Rain = 0
KSB1 160346Z 31007KT 28/M02 A30 RMK A01 T02811020  RH  014%=      5-min Rain = 0
KSB1 160347Z 31008KT 28/M02 A30 RMK A01 T02811020  RH  014%=      5-min Rain = 0
KSB1 160348Z 31007KT 28/M02 A30 RMK A01 T02801020  RH  014%=      5-min Rain = 0
KSB1 160349Z 31007KT 28/M02 A30 RMK A01 T02801021  RH  014%=      5-min Rain = 0
KSB1 160350Z 31007KT 28/M02 A30 RMK A01 T02811020  RH  014%=      5-min Rain = 0
KSB1 160351Z 31007KT 28/M02 A30 RMK A01 T02801020  RH  014%=      5-min Rain = 0
KSB1 160352Z 31007KT 28/M02 A30 RMK A01 T02791020  RH  014%=      5-min Rain = 0
KSB1 160353Z 31007KT 28/M02 A30 RMK A01 T02791020  RH  014%=      5-min Rain = 0
KSB1 160354Z 31007KT 28/M02 A30 RMK A01 T02791020  RH  014%=      5-min Rain = 0
KSB1 160355Z 31007KT 28/M02 A30 RMK A01 T02791020  RH  014%=      5-min Rain = 0
KSB1 160356Z 31007KT 28/M02 A30 RMK A01 T02781020  RH  014%=      5-min Rain = 0
KSB1 160357Z 31007KT 28/M02 A30 RMK A01 T02781020  RH  014%=      5-min Rain = 0
KSB1 160358Z 31007KT 28/M02 A30 RMK A01 T02781021  RH  014%=      5-min Rain = 0
KSB1 160359Z 31008KT 28/M02 A30 RMK A01 T02781021  RH  014%=      5-min Rain = 0
KSB1 160400Z 31008KT 28/M02 A30 RMK A01 T02781022  RH  014%=      5-min Rain = 0
KSB1 160401Z 31008KT 28/M02 A30 RMK A01 T02791022  RH  014%=      5-min Rain = 0
KSB1 160402Z 31008KT 28/M02 A30 RMK A01 T02791021  RH  014%=      5-min Rain = 0
KSB1 160403Z 31008KT 28/M02 A30 RMK A01 T02791021  RH  014%=      5-min Rain = 0
KSB1 160404Z 31009KT 28/M02 A30 RMK A01 T02781021  RH  014%=      5-min Rain = 0
KSB1 160405Z 31009KT 28/M02 A30 RMK A01 T02781022  RH  014%=      5-min Rain = 0
KSB1 160406Z 30009KT 28/M02 A30 RMK A01 T02791022  RH  014%=      5-min Rain = 0
KSB1 160407Z 31008KT 28/M02 A30 RMK A01 T02801022  RH  014%=      5-min Rain = 0
KSB1 160408Z 30008KT 28/M02 A30 RMK A01 T02801022  RH  014%=      5-min Rain = 0
KSB1 160409Z 30008KT 28/M02 A30 RMK A01 T02791022  RH  014%=      5-min Rain = 0
KSB1 160410Z 30009KT 28/M02 A30 RMK A01 T02791023  RH  014%=      5-min Rain = 0
KSB1 160411Z 31009KT 28/M02 A30 RMK A01 T02791023  RH  014%=      5-min Rain = 0
KSB1 160412Z 30008KT 28/M02 A30 RMK A01 T02801023  RH  014%=      5-min Rain = 0
KSB1 160413Z 31008KT 28/M02 A30 RMK A01 T02811023  RH  014%=      5-min Rain = 0
KSB1 160414Z 31008KT 28/M02 A30 RMK A01 T02811024  RH  014%=      5-min Rain = 0
KSB1 160415Z 30008KT 28/M02 A30 RMK A01 T02801024  RH  014%=      5-min Rain = 0
KSB1 160416Z 31009KT 28/M03 A30 RMK A01 T02801025  RH  013%=      5-min Rain = 0
KSB1 160417Z 31009KT 28/M03 A30 RMK A01 T02801025  RH  013%=      5-min Rain = 0
KSB1 160418Z 30009KT 28/M03 A30 RMK A01 T02801025  RH  013%=      5-min Rain = 0
KSB1 160419Z 30009KT 28/M03 A30 RMK A01 T02811026  RH  013%=      5-min Rain = 0
KSB1 160420Z 30009KT 28/M03 A30 RMK A01 T02811026  RH  013%=      5-min Rain = 0
KSB1 160421Z 30009KT 28/M03 A30 RMK A01 T02811026  RH  013%=      5-min Rain = 0
KSB1 160422Z 30008KT 28/M03 A30 RMK A01 T02811026  RH  013%=      5-min Rain = 0
KSB1 160423Z 30009KT 28/M03 A30 RMK A01 T02811026  RH  013%=      5-min Rain = 0
KSB1 160424Z 30009KT 28/M03 A30 RMK A01 T02811027  RH  013%=      5-min Rain = 0
KSB1 160425Z 30010KT 28/M03 A30 RMK A01 T02811027  RH  013%=      5-min Rain = 0
KSB1 160426Z 30009KT 28/M03 A30 RMK A01 T02821028  RH  013%=      5-min Rain = 0
KSB1 160427Z 30009KT 28/M03 A30 RMK A01 T02821027  RH  013%=      5-min Rain = 0
KSB1 160428Z 30008KT 28/M03 A30 RMK A01 T02821027  RH  013%=      5-min Rain = 0
KSB1 160429Z 30007KT 28/M03 A30 RMK A01 T02811026  RH  013%=      5-min Rain = 0
KSB1 160430Z 30008KT 28/M02 A30 RMK A01 T02791024  RH  014%=      5-min Rain = 0
KSB1 160431Z 30009KT 28/M03 A30 RMK A01 T02771027  RH  014%=      5-min Rain = 0
KSB1 160432Z 30010KT 28/M03 A30 RMK A01 T02771028  RH  013%=      5-min Rain = 0
KSB1 160433Z 30009KT 28/M03 A30 RMK A01 T02791028  RH  013%=      5-min Rain = 0
KSB1 160434Z 30008KT 28/M03 A30 RMK A01 T02801028  RH  013%=      5-min Rain = 0
KSB1 160435Z 30009KT 28/M03 A30 RMK A01 T02801029  RH  013%=      5-min Rain = 0
KSB1 160436Z 30008KT 28/M03 A30 RMK A01 T02801028  RH  013%=      5-min Rain = 0
KSB1 160437Z 30009KT 28/M03 A30 RMK A01 T02801029  RH  013%=      5-min Rain = 0
KSB1 160438Z 30009KT 28/M03 A30 RMK A01 T02801031  RH  013%=      5-min Rain = 0
KSB1 160439Z 30010KT 28/M03 A30 RMK A01 T02811030  RH  013%=      5-min Rain = 0
KSB1 160440Z 30009KT 28/M03 A30 RMK A01 T02811031  RH  013%=      5-min Rain = 0
KSB1 160441Z 30008KT 28/M03 A30 RMK A01 T02811030  RH  013%=      5-min Rain = 0
KSB1 160442Z 31010KT 28/M03 A30 RMK A01 T02811030  RH  013%=      5-min Rain = 0
KSB1 160443Z 30009KT 28/M03 A30 RMK A01 T02811030  RH  013%=      5-min Rain = 0
KSB1 160444Z 30008KT 28/M03 A30 RMK A01 T02801030  RH  013%=      5-min Rain = 0
KSB1 160445Z 30008KT 28/M03 A3001 RMK A01 T02801030  RH  013%=      5-min Rain = 0
KSB1 160446Z 30009KT 28/M03 A3001 RMK A01 T02801030  RH  013%=      5-min Rain = 0
KSB1 160447Z 31009KT 28/M03 A3001 RMK A01 T02791031  RH  013%=      5-min Rain = 0
KSB1 160448Z 31007KT 28/M03 A3001 RMK A01 T02791030  RH  013%=      5-min Rain = 0
KSB1 160449Z 31008KT 28/M03 A3001 RMK A01 T02791030  RH  013%=      5-min Rain = 0
KSB1 160450Z 31008KT 28/M03 A3001 RMK A01 T02791030  RH  013%=      5-min Rain = 0
KSB1 160451Z 31007KT 28/M03 A3001 RMK A01 T02781030  RH  013%=      5-min Rain = 0
KSB1 160452Z 31008KT 28/M03 A3001 RMK A01 T02781030  RH  013%=      5-min Rain = 0
KSB1 160453Z 31008KT 28/M03 A3001 RMK A01 T02771030  RH  013%=      5-min Rain = 0
KSB1 160454Z 31008KT 28/M03 A3001 RMK A01 T02771030  RH  013%=      5-min Rain = 0
KSB1 160455Z 31010KT 28/M03 A30 RMK A01 T02771030  RH  013%=      5-min Rain = 0
KSB1 160456Z 31009KT 28/M03 A30 RMK A01 T02781031  RH  013%=      5-min Rain = 0
KSB1 160457Z 31010KT 28/M03 A30 RMK A01 T02791031  RH  013%=      5-min Rain = 0
KSB1 160458Z 31008KT 28/M03 A30 RMK A01 T02791031  RH  013%=      5-min Rain = 0
KSB1 160459Z 31009KT 28/M03 A30 RMK A01 T02791032  RH  013%=      5-min Rain = 0

Page generated in 0.2161 seconds.